Observation data for Boys Ranch on 08/12/2019      Previous  Date  Next       Current Mesonet Observations  Soil Data  Daily Summary Page  Observations in Plain Language
KBY1 120500Z 05005KT 23/19 A30 RMK A01 T02270187  RH  078%=      5-min Rain = 0
KBY1 120501Z 06004KT 23/19 A30 RMK A01 T02260187  RH  078%=      5-min Rain = 0
KBY1 120502Z 06004KT 23/19 A30 RMK A01 T02260188  RH  079%=      5-min Rain = 0
KBY1 120503Z 06004KT 23/19 A30 RMK A01 T02260188  RH  079%=      5-min Rain = 0
KBY1 120504Z 05004KT 23/19 A30 RMK A01 T02260189  RH  079%=      5-min Rain = 0
KBY1 120505Z 03004KT 23/19 A30 RMK A01 T02260189  RH  079%=      5-min Rain = 0
KBY1 120506Z 02004KT 23/19 A2999 RMK A01 T02260187  RH  078%=      5-min Rain = 0
KBY1 120507Z 03004KT 23/19 A2999 RMK A01 T02260186  RH  078%=      5-min Rain = 0
KBY1 120508Z 05005KT 23/19 A2999 RMK A01 T02270186  RH  078%=      5-min Rain = 0
KBY1 120509Z 06004KT 23/19 A2999 RMK A01 T02270187  RH  078%=      5-min Rain = 0
KBY1 120510Z 08004KT 23/19 A2999 RMK A01 T02280188  RH  078%=      5-min Rain = 0
KBY1 120511Z 09004KT 23/19 A2999 RMK A01 T02270190  RH  080%=      5-min Rain = 0
KBY1 120512Z 09004KT 23/19 A2999 RMK A01 T02260190  RH  080%=      5-min Rain = 0
KBY1 120513Z 08004KT 23/19 A2999 RMK A01 T02260192  RH  081%=      5-min Rain = 0
KBY1 120514Z 08004KT 23/19 A2999 RMK A01 T02250192  RH  082%=      5-min Rain = 0
KBY1 120515Z 09005KT 22/19 A2999 RMK A01 T02240192  RH  082%=      5-min Rain = 0
KBY1 120516Z 10004KT 22/19 A2998 RMK A01 T02240193  RH  083%=      5-min Rain = 0
KBY1 120517Z 10004KT 22/19 A2998 RMK A01 T02230193  RH  083%=      5-min Rain = 0
KBY1 120518Z 11002KT 22/19 A2998 RMK A01 T02230191  RH  082%=      5-min Rain = 0
KBY1 120519Z 14002KT 22/19 A2999 RMK A01 T02240192  RH  082%=      5-min Rain = 0
KBY1 120520Z 15003KT 22/19 A2999 RMK A01 T02240192  RH  082%=      5-min Rain = 0
KBY1 120521Z 17004KT 22/19 A2999 RMK A01 T02230192  RH  083%=      5-min Rain = 0
KBY1 120522Z 17006KT 22/19 A30 RMK A01 T02220192  RH  083%=      5-min Rain = 0
KBY1 120523Z 17005KT 22/19 A30 RMK A01 T02200193  RH  084%=      5-min Rain = 0
KBY1 120524Z 18006KT 22/19 A30 RMK A01 T02190194  RH  085%=      5-min Rain = 0
KBY1 120525Z 18006KT 22/19 A3001 RMK A01 T02180194  RH  086%=      5-min Rain = 0
KBY1 120526Z 17005KT 22/19 A3001 RMK A01 T02170194  RH  086%=      5-min Rain = 0
KBY1 120527Z 16005KT 22/19 A3001 RMK A01 T02170193  RH  086%=      5-min Rain = 0
KBY1 120528Z 16004KT 22/19 A30 RMK A01 T02170193  RH  086%=      5-min Rain = 0
KBY1 120529Z 16004KT 22/19 A30 RMK A01 T02170193  RH  086%=      5-min Rain = 0
KBY1 120530Z 15005KT 22/19 A30 RMK A01 T02170193  RH  086%=      5-min Rain = 0
KBY1 120531Z 15004KT 22/19 A3001 RMK A01 T02170192  RH  086%=      5-min Rain = 0
KBY1 120532Z 15004KT 22/19 A3001 RMK A01 T02170192  RH  086%=      5-min Rain = 0
KBY1 120533Z 14004KT 22/19 A30 RMK A01 T02170192  RH  086%=      5-min Rain = 0
KBY1 120534Z 13004KT 22/19 A30 RMK A01 T02170191  RH  085%=      5-min Rain = 0
KBY1 120535Z 12004KT 22/19 A30 RMK A01 T02170190  RH  085%=      5-min Rain = 0
KBY1 120536Z 12004KT 22/19 A30 RMK A01 T02180188  RH  083%=      5-min Rain = 0
KBY1 120537Z 11003KT 22/19 A30 RMK A01 T02190190  RH  083%=      5-min Rain = 0
KBY1 120538Z 11003KT 22/19 A30 RMK A01 T02200188  RH  082%=      5-min Rain = 0
KBY1 120539Z 11003KT 22/19 A3001 RMK A01 T02210189  RH  082%=      5-min Rain = 0
KBY1 120540Z 10004KT 22/19 A30 RMK A01 T02210190  RH  082%=      5-min Rain = 0
KBY1 120541Z 09004KT 22/19 A30 RMK A01 T02210189  RH  082%=      5-min Rain = 0
KBY1 120542Z 10004KT 22/19 A30 RMK A01 T02210190  RH  083%=      5-min Rain = 0
KBY1 120543Z 10003KT 22/19 A30 RMK A01 T02210191  RH  083%=      5-min Rain = 0
KBY1 120544Z 10003KT 22/19 A30 RMK A01 T02200191  RH  083%=      5-min Rain = 0
KBY1 120545Z 09003KT 22/19 A30 RMK A01 T02200191  RH  083%=      5-min Rain = 0
KBY1 120546Z 09003KT 22/19 A30 RMK A01 T02200192  RH  084%=      5-min Rain = 0
KBY1 120547Z 09003KT 22/19 A30 RMK A01 T02200193  RH  084%=      5-min Rain = 0
KBY1 120548Z 09003KT 22/19 A30 RMK A01 T02200193  RH  085%=      5-min Rain = 0
KBY1 120549Z 08003KT 22/19 A30 RMK A01 T02190194  RH  086%=      5-min Rain = 0
KBY1 120550Z 07003KT 22/20 A30 RMK A01 T02200196  RH  087%=      5-min Rain = 0
KBY1 120551Z 05003KT 22/20 A30 RMK A01 T02190196  RH  087%=      5-min Rain = 0
KBY1 120552Z 03003KT 22/20 A30 RMK A01 T02200195  RH  086%=      5-min Rain = 0
KBY1 120553Z 02004KT 22/19 A2999 RMK A01 T02200192  RH  084%=      5-min Rain = 0
KBY1 120554Z 02005KT 22/19 A2999 RMK A01 T02210193  RH  084%=      5-min Rain = 0
KBY1 120555Z 02005KT 22/19 A2999 RMK A01 T02210192  RH  084%=      5-min Rain = 0
KBY1 120556Z 36005KT 22/19 A2999 RMK A01 T02220193  RH  084%=      5-min Rain = 0
KBY1 120557Z 35005KT 22/19 A2999 RMK A01 T02230194  RH  084%=      5-min Rain = 0
KBY1 120558Z 35004KT 22/19 A30 RMK A01 T02230194  RH  084%=      5-min Rain = 0
KBY1 120559Z 30003KT 22/20 A3001 RMK A01 T02230196  RH  085%=      5-min Rain = 0
KBY1 120600Z 24006KT 22/19 A3002 RMK A01 T02230194  RH  084%=      5-min Rain = 0
KBY1 120601Z 22010KT 22/19 A3004 RMK A01 T02230194  RH  083%=      5-min Rain = 0
KBY1 120602Z 22014KT 22/19 A3005 RMK A01 T02230192  RH  082%=      5-min Rain = 0
KBY1 120603Z 23011KT 22/19 A3006 RMK A01 T02230191  RH  082%=      5-min Rain = 0
KBY1 120604Z 25011KT 22/19 A3006 RMK A01 T02230191  RH  082%=      5-min Rain = 0
KBY1 120605Z 26012KT 22/19 A3006 RMK A01 T02230188  RH  081%=      5-min Rain = 0
KBY1 120606Z 26011KT 22/18 A3006 RMK A01 T02230181  RH  077%=      5-min Rain = 0
KBY1 120607Z 27009KT 23/18 A3005 RMK A01 T02260179  RH  075%=      5-min Rain = 0
KBY1 120608Z 27009KT 23/18 A3005 RMK A01 T02280177  RH  073%=      5-min Rain = 0
KBY1 120609Z 28007KT 23/18 A3005 RMK A01 T02300180  RH  074%=      5-min Rain = 0
KBY1 120610Z 28008KT 23/18 A3006 RMK A01 T02300180  RH  074%=      5-min Rain = 0
KBY1 120611Z 26010KT 23/18 A3005 RMK A01 T02290177  RH  072%=      5-min Rain = 0
KBY1 120612Z 27008KT 23/18 A3006 RMK A01 T02300177  RH  072%=      5-min Rain = 0
KBY1 120613Z 26008KT 23/17 A3006 RMK A01 T02310174  RH  070%=      5-min Rain = 0
KBY1 120614Z 27005KT 23/17 A3006 RMK A01 T02320174  RH  070%=      5-min Rain = 0
KBY1 120615Z 29003KT 23/18 A3005 RMK A01 T02320175  RH  070%=      5-min Rain = 0
KBY1 120616Z 31004KT 23/18 A3005 RMK A01 T02320176  RH  071%=      5-min Rain = 0
KBY1 120617Z 32006KT 23/18 A3004 RMK A01 T02320177  RH  071%=      5-min Rain = 0
KBY1 120618Z 31006KT 23/18 A3004 RMK A01 T02310179  RH  073%=      5-min Rain = 0
KBY1 120619Z 30005KT 23/18 A3003 RMK A01 T02300177  RH  072%=      5-min Rain = 0
KBY1 120620Z 31008KT 23/18 A3003 RMK A01 T02300176  RH  071%=      5-min Rain = 0
KBY1 120621Z 31009KT 23/18 A3003 RMK A01 T02310178  RH  072%=      5-min Rain = 0
KBY1 120622Z 32009KT 23/18 A3003 RMK A01 T02310179  RH  073%=      5-min Rain = 0
KBY1 120623Z 33008KT 23/18 A3002 RMK A01 T02300183  RH  074%=      5-min Rain = 0
KBY1 120624Z 34009KT 23/18 A3002 RMK A01 T02300182  RH  074%=      5-min Rain = 0
KBY1 120625Z 35008KT 23/18 A3001 RMK A01 T02300184  RH  075%=      5-min Rain = 0
KBY1 120626Z 36008KT 23/18 A30 RMK A01 T02290184  RH  076%=      5-min Rain = 0
KBY1 120627Z 36009KT 23/18 A30 RMK A01 T02290183  RH  076%=      5-min Rain = 0
KBY1 120628Z 00009KT 23/18 A2999 RMK A01 T02290179  RH  073%=      5-min Rain = 0
KBY1 120629Z 00009KT 23/18 A2999 RMK A01 T02310176  RH  071%=      5-min Rain = 0
KBY1 120630Z 01010KT 23/17 A2999 RMK A01 T02330174  RH  069%=      5-min Rain = 0
KBY1 120631Z 36008KT 23/17 A2999 RMK A01 T02340174  RH  069%=      5-min Rain = 0
KBY1 120632Z 00010KT 24/17 A2999 RMK A01 T02350174  RH  068%=      5-min Rain = 0
KBY1 120633Z 00009KT 24/17 A2999 RMK A01 T02350173  RH  068%=      5-min Rain = 0
KBY1 120634Z 00009KT 24/17 A2999 RMK A01 T02350172  RH  067%=      5-min Rain = 0
KBY1 120635Z 36006KT 24/17 A2999 RMK A01 T02360173  RH  068%=      5-min Rain = 0
KBY1 120636Z 36007KT 24/17 A2999 RMK A01 T02360173  RH  068%=      5-min Rain = 0
KBY1 120637Z 36008KT 24/17 A2999 RMK A01 T02360172  RH  067%=      5-min Rain = 0
KBY1 120638Z 00009KT 24/17 A2999 RMK A01 T02360172  RH  067%=      5-min Rain = 0
KBY1 120639Z 01008KT 24/17 A2999 RMK A01 T02360169  RH  066%=      5-min Rain = 0
KBY1 120640Z 35007KT 24/17 A2999 RMK A01 T02370169  RH  066%=      5-min Rain = 0
KBY1 120641Z 35008KT 24/17 A2999 RMK A01 T02370169  RH  066%=      5-min Rain = 0
KBY1 120642Z 35009KT 24/17 A2999 RMK A01 T02370169  RH  066%=      5-min Rain = 0
KBY1 120643Z 34008KT 24/17 A2999 RMK A01 T02380167  RH  065%=      5-min Rain = 0
KBY1 120644Z 33007KT 24/17 A2999 RMK A01 T02390168  RH  064%=      5-min Rain = 0
KBY1 120645Z 33008G13KT 24/17 A2999 RMK A01 T02390166  RH  064%=      5-min Rain = 0
KBY1 120646Z 33007KT 24/17 A2999 RMK A01 T02400165  RH  063%=      5-min Rain = 0
KBY1 120647Z 33006G11KT 24/17 A2999 RMK A01 T02420165  RH  062%=      5-min Rain = 0
KBY1 120648Z 34008KT 24/16 A2999 RMK A01 T02430163  RH  061%=      5-min Rain = 0
KBY1 120649Z 34006KT 24/16 A2999 RMK A01 T02440164  RH  061%=      5-min Rain = 0
KBY1 120650Z 34006KT 24/16 A2998 RMK A01 T02440164  RH  061%=      5-min Rain = 0
KBY1 120651Z 34008KT 24/16 A2998 RMK A01 T02440164  RH  061%=      5-min Rain = 0
KBY1 120652Z 35008KT 25/16 A2998 RMK A01 T02450163  RH  061%=      5-min Rain = 0
KBY1 120653Z 34008KT 25/16 A2998 RMK A01 T02450163  RH  060%=      5-min Rain = 0
KBY1 120654Z 35005KT 25/16 A2999 RMK A01 T02460162  RH  060%=      5-min Rain = 0
KBY1 120655Z 01003G8KT 25/16 A2999 RMK A01 T02460163  RH  060%=      5-min Rain = 0
KBY1 120656Z 35002KT 25/16 A2999 RMK A01 T02460163  RH  060%=      5-min Rain = 0
KBY1 120657Z 26000KT 25/16 A30 RMK A01 T02460162  RH  060%=      5-min Rain = 0
KBY1 120658Z 21002KT 25/16 A30 RMK A01 T02460163  RH  060%=      5-min Rain = 0
KBY1 120659Z 19002KT 25/16 A30 RMK A01 T02460163  RH  060%=      5-min Rain = 0
KBY1 120700Z 19005KT 25/16 A3001 RMK A01 T02450164  RH  061%=      5-min Rain = 0
KBY1 120701Z 17007KT 24/17 A3001 RMK A01 T02440166  RH  062%=      5-min Rain = 0
KBY1 120702Z 16007KT 24/17 A3001 RMK A01 T02410167  RH  063%=      5-min Rain = 0
KBY1 120703Z 16009KT 24/17 A30 RMK A01 T02390169  RH  065%=      5-min Rain = 0
KBY1 120704Z 17006KT 24/17 A30 RMK A01 T02360171  RH  067%=      5-min Rain = 0
KBY1 120705Z 17007KT 23/17 A3001 RMK A01 T02330172  RH  068%=      5-min Rain = 0
KBY1 120706Z 18009KT 23/17 A3001 RMK A01 T02320172  RH  069%=      5-min Rain = 0
KBY1 120707Z 17009KT 23/17 A30 RMK A01 T02310173  RH  070%=      5-min Rain = 0
KBY1 120708Z 18007KT 23/17 A30 RMK A01 T02300173  RH  070%=      5-min Rain = 0
KBY1 120709Z 19006KT 23/17 A30 RMK A01 T02290173  RH  071%=      5-min Rain = 0
KBY1 120710Z 18006KT 23/17 A30 RMK A01 T02280173  RH  071%=      5-min Rain = 0
KBY1 120711Z 18004KT 23/17 A30 RMK A01 T02280173  RH  071%=      5-min Rain = 0
KBY1 120712Z 18003KT 23/17 A30 RMK A01 T02280173  RH  071%=      5-min Rain = 0
KBY1 120713Z 18004KT 23/17 A30 RMK A01 T02280173  RH  071%=      5-min Rain = 0
KBY1 120714Z 18003KT 23/17 A30 RMK A01 T02270173  RH  071%=      5-min Rain = 0
KBY1 120715Z 17002KT 23/17 A30 RMK A01 T02270173  RH  072%=      5-min Rain = 0
KBY1 120716Z 15002KT 23/17 A30 RMK A01 T02270172  RH  071%=      5-min Rain = 0
KBY1 120717Z 14003KT 23/17 A30 RMK A01 T02260174  RH  072%=      5-min Rain = 0
KBY1 120718Z 12003KT 23/17 A30 RMK A01 T02260174  RH  073%=      5-min Rain = 0
KBY1 120719Z 14004KT 23/18 A30 RMK A01 T02260175  RH  073%=      5-min Rain = 0
KBY1 120720Z 15004KT 23/18 A30 RMK A01 T02250175  RH  073%=      5-min Rain = 0
KBY1 120721Z 15005KT 23/18 A30 RMK A01 T02250175  RH  073%=      5-min Rain = 0
KBY1 120722Z 14004KT 22/18 A30 RMK A01 T02240175  RH  074%=      5-min Rain = 0
KBY1 120723Z 14003KT 22/17 A30 RMK A01 T02240173  RH  073%=      5-min Rain = 0
KBY1 120724Z 16002KT 22/17 A2999 RMK A01 T02240174  RH  073%=      5-min Rain = 0
KBY1 120725Z 17002KT 22/17 A2999 RMK A01 T02230174  RH  074%=      5-min Rain = 0
KBY1 120726Z 21001KT 22/17 A2999 RMK A01 T02240174  RH  074%=      5-min Rain = 0
KBY1 120727Z 25001KT 22/18 A2999 RMK A01 T02240176  RH  074%=      5-min Rain = 0
KBY1 120728Z 24001KT 22/18 A2999 RMK A01 T02230176  RH  075%=      5-min Rain = 0
KBY1 120729Z 23000KT 22/18 A2999 RMK A01 T02230175  RH  074%=      5-min Rain = 0
KBY1 120730Z 15000KT 22/17 A2999 RMK A01 T02230173  RH  073%=      5-min Rain = 0
KBY1 120731Z 14000KT 22/17 A2999 RMK A01 T02230173  RH  073%=      5-min Rain = 0
KBY1 120732Z 14001KT 22/17 A2999 RMK A01 T02230173  RH  073%=      5-min Rain = 0
KBY1 120733Z 11001KT 22/18 A2999 RMK A01 T02230175  RH  074%=      5-min Rain = 0
KBY1 120734Z 13002KT 22/18 A2999 RMK A01 T02240180  RH  077%=      5-min Rain = 0
KBY1 120735Z 10002KT 22/18 A2999 RMK A01 T02230181  RH  077%=      5-min Rain = 0
KBY1 120736Z 07003KT 22/18 A2999 RMK A01 T02220180  RH  077%=      5-min Rain = 0
KBY1 120737Z 08004KT 22/18 A2999 RMK A01 T02210181  RH  078%=      5-min Rain = 0
KBY1 120738Z 09002KT 22/18 A2999 RMK A01 T02200181  RH  078%=      5-min Rain = 0
KBY1 120739Z 10001KT 22/18 A2999 RMK A01 T02200181  RH  078%=      5-min Rain = 0
KBY1 120740Z 13001KT 22/18 A2999 RMK A01 T02200180  RH  078%=      5-min Rain = 0
KBY1 120741Z 12001KT 22/18 A2999 RMK A01 T02190178  RH  077%=      5-min Rain = 0
KBY1 120742Z 10001KT 22/18 A2999 RMK A01 T02200180  RH  078%=      5-min Rain = 0
KBY1 120743Z 08000KT 22/18 A2999 RMK A01 T02200182  RH  079%=      5-min Rain = 0
KBY1 120744Z 02000KT 22/18 A2999 RMK A01 T02200180  RH  078%=      5-min Rain = 0
KBY1 120745Z 03001KT 22/18 A2999 RMK A01 T02200180  RH  078%=      5-min Rain = 0
KBY1 120746Z 04001KT 22/18 A2999 RMK A01 T02210180  RH  078%=      5-min Rain = 0
KBY1 120747Z 04000KT 22/18 A2999 RMK A01 T02210180  RH  078%=      5-min Rain = 0
KBY1 120748Z 00000KT 22/18 A30 RMK A01 T02210179  RH  077%=      5-min Rain = 0
KBY1 120749Z 00000KT 22/18 A30 RMK A01 T02210180  RH  078%=      5-min Rain = 0
KBY1 120750Z 08001KT 22/18 A30 RMK A01 T02210184  RH  080%=      5-min Rain = 0
KBY1 120751Z 09003KT 22/18 A30 RMK A01 T02210184  RH  080%=      5-min Rain = 0
KBY1 120752Z 08002KT 22/18 A30 RMK A01 T02200180  RH  078%=      5-min Rain = 0
KBY1 120753Z 06001KT 22/18 A2999 RMK A01 T02190176  RH  077%=      5-min Rain = 0
KBY1 120754Z 07002KT 22/18 A2999 RMK A01 T02190179  RH  078%=      5-min Rain = 0
KBY1 120755Z 07002KT 22/18 A2999 RMK A01 T02190179  RH  078%=      5-min Rain = 0
KBY1 120756Z 07001KT 22/18 A2999 RMK A01 T02190180  RH  079%=      5-min Rain = 0
KBY1 120757Z 04000KT 22/18 A2999 RMK A01 T02190182  RH  079%=      5-min Rain = 0
KBY1 120758Z 03001KT 22/18 A2999 RMK A01 T02190180  RH  079%=      5-min Rain = 0
KBY1 120759Z 05001KT 22/18 A2999 RMK A01 T02190177  RH  077%=      5-min Rain = 0
KBY1 120800Z 07002KT 22/18 A2999 RMK A01 T02190180  RH  079%=      5-min Rain = 0
KBY1 120801Z 07002KT 22/18 A2999 RMK A01 T02190179  RH  078%=      5-min Rain = 0
KBY1 120802Z 08002KT 22/18 A2999 RMK A01 T02190182  RH  079%=      5-min Rain = 0
KBY1 120803Z 07002KT 22/18 A2999 RMK A01 T02190181  RH  079%=      5-min Rain = 0
KBY1 120804Z 07003KT 22/18 A2999 RMK A01 T02190184  RH  080%=      5-min Rain = 0
KBY1 120805Z 06003KT 22/18 A2999 RMK A01 T02190182  RH  079%=      5-min Rain = 0
KBY1 120806Z 06003KT 22/18 A2999 RMK A01 T02190182  RH  080%=      5-min Rain = 0
KBY1 120807Z 07003KT 22/18 A2999 RMK A01 T02190181  RH  079%=      5-min Rain = 0
KBY1 120808Z 07003KT 22/18 A2999 RMK A01 T02190180  RH  079%=      5-min Rain = 0
KBY1 120809Z 08003KT 22/18 A2999 RMK A01 T02190180  RH  079%=      5-min Rain = 0
KBY1 120810Z 09004KT 22/18 A2999 RMK A01 T02190182  RH  079%=      5-min Rain = 0
KBY1 120811Z 09004KT 22/18 A2999 RMK A01 T02190181  RH  079%=      5-min Rain = 0
KBY1 120812Z 09003KT 22/18 A2999 RMK A01 T02180182  RH  080%=      5-min Rain = 0
KBY1 120813Z 10003KT 22/18 A2999 RMK A01 T02180183  RH  081%=      5-min Rain = 0
KBY1 120814Z 09004KT 22/18 A2999 RMK A01 T02170184  RH  081%=      5-min Rain = 0
KBY1 120815Z 10004KT 22/18 A2999 RMK A01 T02170184  RH  082%=      5-min Rain = 0
KBY1 120816Z 10003KT 22/18 A2999 RMK A01 T02170184  RH  082%=      5-min Rain = 0
KBY1 120817Z 09003KT 22/18 A2999 RMK A01 T02160183  RH  082%=      5-min Rain = 0
KBY1 120818Z 07002KT 22/18 A2999 RMK A01 T02160183  RH  081%=      5-min Rain = 0
KBY1 120819Z 07002KT 22/18 A2999 RMK A01 T02160184  RH  082%=      5-min Rain = 0
KBY1 120820Z 09002KT 22/18 A2999 RMK A01 T02160183  RH  082%=      5-min Rain = 0
KBY1 120821Z 12003KT 22/18 A2999 RMK A01 T02160184  RH  082%=      5-min Rain = 0
KBY1 120822Z 13002KT 22/18 A30 RMK A01 T02160184  RH  082%=      5-min Rain = 0
KBY1 120823Z 09001KT 22/19 A2999 RMK A01 T02160186  RH  083%=      5-min Rain = 0
KBY1 120824Z 05003KT 22/19 A2999 RMK A01 T02160186  RH  083%=      5-min Rain = 0
KBY1 120825Z 04004KT 22/19 A2999 RMK A01 T02160186  RH  083%=      5-min Rain = 0
KBY1 120826Z 04003KT 22/19 A2999 RMK A01 T02150186  RH  083%=      5-min Rain = 0
KBY1 120827Z 07002KT 22/19 A2999 RMK A01 T02150186  RH  083%=      5-min Rain = 0
KBY1 120828Z 10002KT 22/19 A2999 RMK A01 T02150186  RH  083%=      5-min Rain = 0
KBY1 120829Z 11002KT 22/19 A2999 RMK A01 T02160185  RH  083%=      5-min Rain = 0
KBY1 120830Z 10002KT 22/19 A2999 RMK A01 T02160186  RH  083%=      5-min Rain = 0
KBY1 120831Z 06002KT 22/19 A2999 RMK A01 T02160186  RH  083%=      5-min Rain = 0
KBY1 120832Z 04002KT 22/19 A2999 RMK A01 T02160186  RH  083%=      5-min Rain = 0
KBY1 120833Z 03002KT 22/19 A2999 RMK A01 T02160186  RH  083%=      5-min Rain = 0
KBY1 120834Z 03002KT 22/19 A2999 RMK A01 T02160187  RH  083%=      5-min Rain = 0
KBY1 120835Z 04002KT 22/19 A2999 RMK A01 T02160187  RH  083%=      5-min Rain = 0
KBY1 120836Z 06002KT 22/19 A2999 RMK A01 T02160185  RH  083%=      5-min Rain = 0
KBY1 120837Z 08003KT 22/19 A2999 RMK A01 T02160185  RH  082%=      5-min Rain = 0
KBY1 120838Z 09003KT 22/19 A2999 RMK A01 T02170186  RH  083%=      5-min Rain = 0
KBY1 120839Z 10003KT 22/19 A2999 RMK A01 T02160187  RH  083%=      5-min Rain = 0
KBY1 120840Z 10003KT 22/19 A2999 RMK A01 T02170188  RH  084%=      5-min Rain = 0
KBY1 120841Z 09003KT 22/19 A2999 RMK A01 T02170190  RH  085%=      5-min Rain = 0
KBY1 120842Z 07001KT 22/19 A2999 RMK A01 T02170191  RH  085%=      5-min Rain = 0
KBY1 120843Z 03001KT 22/19 A2999 RMK A01 T02170191  RH  085%=      5-min Rain = 0
KBY1 120844Z 06001KT 22/19 A2999 RMK A01 T02160191  RH  085%=      5-min Rain = 0
KBY1 120845Z 09000KT 22/19 A2999 RMK A01 T02160189  RH  084%=      5-min Rain = 0
KBY1 120846Z 10001KT 22/19 A2999 RMK A01 T02160186  RH  083%=      5-min Rain = 0
KBY1 120847Z 09000KT 22/19 A2999 RMK A01 T02160185  RH  082%=      5-min Rain = 0
KBY1 120848Z 00000KT 22/19 A2999 RMK A01 T02160185  RH  082%=      5-min Rain = 0
KBY1 120849Z 00000KT 22/19 A2999 RMK A01 T02170187  RH  083%=      5-min Rain = 0
KBY1 120850Z 12001KT 22/19 A2999 RMK A01 T02170188  RH  084%=      5-min Rain = 0
KBY1 120851Z 13002KT 22/19 A2999 RMK A01 T02170193  RH  086%=      5-min Rain = 0
KBY1 120852Z 11002KT 22/19 A2999 RMK A01 T02170189  RH  084%=      5-min Rain = 0
KBY1 120853Z 10002KT 22/19 A2999 RMK A01 T02170192  RH  086%=      5-min Rain = 0
KBY1 120854Z 08002KT 22/19 A2999 RMK A01 T02170193  RH  086%=      5-min Rain = 0
KBY1 120855Z 08002KT 22/19 A2999 RMK A01 T02170192  RH  086%=      5-min Rain = 0
KBY1 120856Z 07002KT 22/19 A2999 RMK A01 T02160191  RH  086%=      5-min Rain = 0
KBY1 120857Z 07001KT 22/19 A2999 RMK A01 T02160191  RH  086%=      5-min Rain = 0
KBY1 120858Z 09001KT 22/19 A2999 RMK A01 T02160191  RH  086%=      5-min Rain = 0
KBY1 120859Z 11001KT 22/19 A2999 RMK A01 T02160191  RH  086%=      5-min Rain = 0
KBY1 120900Z 12002KT 22/19 A2999 RMK A01 T02160191  RH  086%=      5-min Rain = 0
KBY1 120901Z 11002KT 22/19 A2999 RMK A01 T02160192  RH  086%=      5-min Rain = 0
KBY1 120902Z 09002KT 22/19 A2999 RMK A01 T02160193  RH  087%=      5-min Rain = 0
KBY1 120903Z 08002KT 22/19 A2999 RMK A01 T02150192  RH  087%=      5-min Rain = 0
KBY1 120904Z 09002KT 22/19 A2999 RMK A01 T02160194  RH  088%=      5-min Rain = 0
KBY1 120905Z 09002KT 22/20 A2999 RMK A01 T02160195  RH  088%=      5-min Rain = 0
KBY1 120906Z 09003KT 22/19 A2999 RMK A01 T02150194  RH  088%=      5-min Rain = 0
KBY1 120907Z 09004KT 21/19 A2999 RMK A01 T02140193  RH  088%=      5-min Rain = 0
KBY1 120908Z 10004KT 21/19 A2999 RMK A01 T02140193  RH  088%=      5-min Rain = 0
KBY1 120909Z 10004KT 21/19 A2999 RMK A01 T02140194  RH  088%=      5-min Rain = 0
KBY1 120910Z 09003KT 21/19 A2999 RMK A01 T02140194  RH  088%=      5-min Rain = 0
KBY1 120911Z 08002KT 21/19 A2999 RMK A01 T02140193  RH  088%=      5-min Rain = 0
KBY1 120912Z 08003KT 21/19 A2999 RMK A01 T02130192  RH  088%=      5-min Rain = 0
KBY1 120913Z 09003KT 21/19 A2999 RMK A01 T02130191  RH  087%=      5-min Rain = 0
KBY1 120914Z 09002KT 21/19 A2999 RMK A01 T02130191  RH  087%=      5-min Rain = 0
KBY1 120915Z 09003KT 21/19 A2999 RMK A01 T02130191  RH  087%=      5-min Rain = 0
KBY1 120916Z 08003KT 21/19 A2999 RMK A01 T02130191  RH  087%=      5-min Rain = 0
KBY1 120917Z 09002KT 21/19 A2999 RMK A01 T02130192  RH  088%=      5-min Rain = 0
KBY1 120918Z 08002KT 21/19 A2999 RMK A01 T02130193  RH  088%=      5-min Rain = 0
KBY1 120919Z 08002KT 21/19 A2999 RMK A01 T02130193  RH  089%=      5-min Rain = 0
KBY1 120920Z 07002KT 21/19 A2999 RMK A01 T02130194  RH  089%=      5-min Rain = 0
KBY1 120921Z 07001KT 21/19 A2999 RMK A01 T02120193  RH  089%=      5-min Rain = 0
KBY1 120922Z 09001KT 21/19 A2999 RMK A01 T02130194  RH  089%=      5-min Rain = 0
KBY1 120923Z 09002KT 21/19 A2999 RMK A01 T02130193  RH  089%=      5-min Rain = 0
KBY1 120924Z 10003KT 21/19 A2999 RMK A01 T02120193  RH  089%=      5-min Rain = 0
KBY1 120925Z 09003KT 21/19 A2999 RMK A01 T02130194  RH  089%=      5-min Rain = 0
KBY1 120926Z 09002KT 21/19 A2999 RMK A01 T02120192  RH  088%=      5-min Rain = 0
KBY1 120927Z 12000KT 21/19 A2999 RMK A01 T02130193  RH  089%=      5-min Rain = 0
KBY1 120928Z 11002KT 21/19 A2999 RMK A01 T02130194  RH  089%=      5-min Rain = 0
KBY1 120929Z 10002KT 21/19 A2999 RMK A01 T02130194  RH  089%=      5-min Rain = 0
KBY1 120930Z 08002KT 21/19 A2999 RMK A01 T02130194  RH  089%=      5-min Rain = 0
KBY1 120931Z 08002KT 21/19 A2999 RMK A01 T02120194  RH  089%=      5-min Rain = 0
KBY1 120932Z 09002KT 21/19 A2999 RMK A01 T02130194  RH  089%=      5-min Rain = 0
KBY1 120933Z 10003KT 21/20 A2999 RMK A01 T02130195  RH  089%=      5-min Rain = 0
KBY1 120934Z 11004KT 21/20 A2999 RMK A01 T02130196  RH  090%=      5-min Rain = 0
KBY1 120935Z 11004KT 21/20 A2999 RMK A01 T02120195  RH  090%=      5-min Rain = 0
KBY1 120936Z 11004KT 21/20 A2999 RMK A01 T02120195  RH  090%=      5-min Rain = 0
KBY1 120937Z 10003KT 21/20 A2999 RMK A01 T02120195  RH  090%=      5-min Rain = 0
KBY1 120938Z 10003KT 21/19 A2999 RMK A01 T02110194  RH  090%=      5-min Rain = 0
KBY1 120939Z 09003KT 21/20 A2999 RMK A01 T02110195  RH  090%=      5-min Rain = 0
KBY1 120940Z 10003KT 21/19 A2999 RMK A01 T02110194  RH  090%=      5-min Rain = 0
KBY1 120941Z 11003KT 21/19 A2999 RMK A01 T02100194  RH  091%=      5-min Rain = 0
KBY1 120942Z 12003KT 21/20 A2999 RMK A01 T02100195  RH  091%=      5-min Rain = 0
KBY1 120943Z 11003KT 21/20 A2999 RMK A01 T02110195  RH  091%=      5-min Rain = 0
KBY1 120944Z 10004KT 21/19 A2999 RMK A01 T02100194  RH  091%=      5-min Rain = 0
KBY1 120945Z 10003KT 21/20 A2999 RMK A01 T02100195  RH  091%=      5-min Rain = 0
KBY1 120946Z 11002KT 21/20 A2999 RMK A01 T02100195  RH  091%=      5-min Rain = 0
KBY1 120947Z 09002KT 21/19 A2999 RMK A01 T02100194  RH  091%=      5-min Rain = 0
KBY1 120948Z 09002KT 21/20 A2999 RMK A01 T02090195  RH  091%=      5-min Rain = 0
KBY1 120949Z 08002KT 21/19 A2999 RMK A01 T02090194  RH  091%=      5-min Rain = 0
KBY1 120950Z 08002KT 21/19 A2999 RMK A01 T02090194  RH  091%=      5-min Rain = 0
KBY1 120951Z 08002KT 21/19 A2999 RMK A01 T02090194  RH  091%=      5-min Rain = 0
KBY1 120952Z 09003KT 21/19 A2999 RMK A01 T02090194  RH  091%=      5-min Rain = 0
KBY1 120953Z 10003KT 21/20 A2999 RMK A01 T02090195  RH  092%=      5-min Rain = 0
KBY1 120954Z 11002KT 21/20 A2999 RMK A01 T02090195  RH  092%=      5-min Rain = 0
KBY1 120955Z 10002KT 21/20 A2999 RMK A01 T02080195  RH  092%=      5-min Rain = 0
KBY1 120956Z 09002KT 21/20 A2999 RMK A01 T02090196  RH  092%=      5-min Rain = 0
KBY1 120957Z 09002KT 21/19 A2999 RMK A01 T02090194  RH  092%=      5-min Rain = 0
KBY1 120958Z 10002KT 21/19 A2999 RMK A01 T02080194  RH  092%=      5-min Rain = 0
KBY1 120959Z 09001KT 21/20 A2999 RMK A01 T02090196  RH  092%=      5-min Rain = 0
KBY1 121000Z 07002KT 21/20 A2999 RMK A01 T02090195  RH  092%=      5-min Rain = 0
KBY1 121001Z 08003KT 21/20 A2998 RMK A01 T02090195  RH  092%=      5-min Rain = 0
KBY1 121002Z 08004KT 21/20 A2998 RMK A01 T02090195  RH  091%=      5-min Rain = 0
KBY1 121003Z 07004KT 21/20 A2998 RMK A01 T02090195  RH  092%=      5-min Rain = 0
KBY1 121004Z 07004KT 21/19 A2998 RMK A01 T02090194  RH  091%=      5-min Rain = 0
KBY1 121005Z 07004KT 21/19 A2998 RMK A01 T02090194  RH  091%=      5-min Rain = 0
KBY1 121006Z 07004KT 21/20 A2998 RMK A01 T02090195  RH  091%=      5-min Rain = 0
KBY1 121007Z 07004KT 21/19 A2998 RMK A01 T02090194  RH  091%=      5-min Rain = 0
KBY1 121008Z 08004KT 21/19 A2998 RMK A01 T02090193  RH  091%=      5-min Rain = 0
KBY1 121009Z 08003KT 21/19 A2998 RMK A01 T02090193  RH  090%=      5-min Rain = 0
KBY1 121010Z 09003KT 21/19 A2998 RMK A01 T02090193  RH  090%=      5-min Rain = 0
KBY1 121011Z 09002KT 21/19 A2998 RMK A01 T02090193  RH  090%=      5-min Rain = 0
KBY1 121012Z 09003KT 21/19 A2998 RMK A01 T02090193  RH  090%=      5-min Rain = 0
KBY1 121013Z 09003KT 21/19 A2998 RMK A01 T02090192  RH  090%=      5-min Rain = 0
KBY1 121014Z 09003KT 21/19 A2998 RMK A01 T02100193  RH  090%=      5-min Rain = 0
KBY1 121015Z 09004KT 21/19 A2998 RMK A01 T02090192  RH  090%=      5-min Rain = 0
KBY1 121016Z 09004KT 21/19 A2998 RMK A01 T02100191  RH  089%=      5-min Rain = 0
KBY1 121017Z 10004KT 21/19 A2998 RMK A01 T02090191  RH  089%=      5-min Rain = 0
KBY1 121018Z 10003KT 21/19 A2998 RMK A01 T02090191  RH  089%=      5-min Rain = 0
KBY1 121019Z 10003KT 21/19 A2998 RMK A01 T02090191  RH  089%=      5-min Rain = 0
KBY1 121020Z 09003KT 21/19 A2998 RMK A01 T02090191  RH  089%=      5-min Rain = 0
KBY1 121021Z 10003KT 21/19 A2998 RMK A01 T02090191  RH  089%=      5-min Rain = 0
KBY1 121022Z 10003KT 21/19 A2999 RMK A01 T02090192  RH  090%=      5-min Rain = 0
KBY1 121023Z 10003KT 21/19 A2999 RMK A01 T02090192  RH  090%=      5-min Rain = 0
KBY1 121024Z 11003KT 21/19 A2999 RMK A01 T02090192  RH  090%=      5-min Rain = 0
KBY1 121025Z 12003KT 21/19 A2999 RMK A01 T02090192  RH  090%=      5-min Rain = 0
KBY1 121026Z 12002KT 21/19 A2999 RMK A01 T02090192  RH  090%=      5-min Rain = 0
KBY1 121027Z 11003KT 21/19 A2999 RMK A01 T02080192  RH  090%=      5-min Rain = 0
KBY1 121028Z 10003KT 21/19 A2999 RMK A01 T02080192  RH  091%=      5-min Rain = 0
KBY1 121029Z 10002KT 21/19 A2999 RMK A01 T02080192  RH  091%=      5-min Rain = 0
KBY1 121030Z 09002KT 21/19 A2999 RMK A01 T02070192  RH  091%=      5-min Rain = 0
KBY1 121031Z 08002KT 21/19 A2999 RMK A01 T02070191  RH  091%=      5-min Rain = 0
KBY1 121032Z 08002KT 21/19 A2999 RMK A01 T02070191  RH  091%=      5-min Rain = 0
KBY1 121033Z 08002KT 21/19 A2999 RMK A01 T02070192  RH  091%=      5-min Rain = 0
KBY1 121034Z 09003KT 21/19 A2999 RMK A01 T02070191  RH  091%=      5-min Rain = 0
KBY1 121035Z 08002KT 21/19 A2999 RMK A01 T02070190  RH  090%=      5-min Rain = 0
KBY1 121036Z 08002KT 21/19 A2999 RMK A01 T02070191  RH  091%=      5-min Rain = 0
KBY1 121037Z 07002KT 21/19 A2999 RMK A01 T02070191  RH  091%=      5-min Rain = 0
KBY1 121038Z 08002KT 21/19 A2999 RMK A01 T02070191  RH  091%=      5-min Rain = 0
KBY1 121039Z 07001KT 21/19 A2999 RMK A01 T02060189  RH  090%=      5-min Rain = 0
KBY1 121040Z 09001KT 21/19 A2999 RMK A01 T02060190  RH  090%=      5-min Rain = 0
KBY1 121041Z 09001KT 21/19 A2999 RMK A01 T02060189  RH  090%=      5-min Rain = 0
KBY1 121042Z 09002KT 21/19 A2999 RMK A01 T02060189  RH  090%=      5-min Rain = 0
KBY1 121043Z 10002KT 21/19 A2999 RMK A01 T02060189  RH  090%=      5-min Rain = 0
KBY1 121044Z 10002KT 21/19 A2999 RMK A01 T02070190  RH  090%=      5-min Rain = 0
KBY1 121045Z 10002KT 21/19 A2999 RMK A01 T02070190  RH  090%=      5-min Rain = 0
KBY1 121046Z 09001KT 21/19 A2999 RMK A01 T02070191  RH  091%=      5-min Rain = 0
KBY1 121047Z 10001KT 21/19 A30 RMK A01 T02070191  RH  091%=      5-min Rain = 0
KBY1 121048Z 10001KT 21/19 A30 RMK A01 T02070191  RH  091%=      5-min Rain = 0
KBY1 121049Z 10001KT 21/19 A30 RMK A01 T02070192  RH  091%=      5-min Rain = 0
KBY1 121050Z 10002KT 21/19 A30 RMK A01 T02070193  RH  091%=      5-min Rain = 0
KBY1 121051Z 11002KT 21/19 A30 RMK A01 T02070193  RH  092%=      5-min Rain = 0
KBY1 121052Z 11002KT 21/19 A30 RMK A01 T02070193  RH  092%=      5-min Rain = 0
KBY1 121053Z 11002KT 21/19 A30 RMK A01 T02060192  RH  091%=      5-min Rain = 0
KBY1 121054Z 13001KT 21/19 A30 RMK A01 T02060192  RH  092%=      5-min Rain = 0
KBY1 121055Z 14001KT 21/19 A30 RMK A01 T02060193  RH  092%=      5-min Rain = 0
KBY1 121056Z 15001KT 21/19 A30 RMK A01 T02050192  RH  092%=      5-min Rain = 0
KBY1 121057Z 15001KT 21/19 A30 RMK A01 T02050192  RH  092%=      5-min Rain = 0
KBY1 121058Z 14002KT 21/19 A30 RMK A01 T02050192  RH  093%=      5-min Rain = 0
KBY1 121059Z 15002KT 20/19 A30 RMK A01 T02040191  RH  092%=      5-min Rain = 0
KBY1 121100Z 15002KT 20/19 A30 RMK A01 T02030191  RH  092%=      5-min Rain = 0
KBY1 121101Z 14001KT 20/19 A2999 RMK A01 T02030191  RH  093%=      5-min Rain = 0
KBY1 121102Z 13001KT 20/19 A2999 RMK A01 T02030191  RH  093%=      5-min Rain = 0
KBY1 121103Z 13000KT 20/19 A2999 RMK A01 T02030190  RH  092%=      5-min Rain = 0
KBY1 121104Z 00000KT 20/19 A30 RMK A01 T02030191  RH  093%=      5-min Rain = 0
KBY1 121105Z 13000KT 20/19 A30 RMK A01 T02030191  RH  093%=      5-min Rain = 0
KBY1 121106Z 13000KT 20/19 A30 RMK A01 T02030191  RH  093%=      5-min Rain = 0
KBY1 121107Z 11001KT 20/19 A2999 RMK A01 T02030191  RH  093%=      5-min Rain = 0
KBY1 121108Z 11001KT 20/19 A2999 RMK A01 T02030192  RH  093%=      5-min Rain = 0
KBY1 121109Z 10000KT 20/19 A2999 RMK A01 T02030192  RH  093%=      5-min Rain = 0
KBY1 121110Z 00000KT 20/19 A2999 RMK A01 T02030191  RH  093%=      5-min Rain = 0
KBY1 121111Z 00000KT 20/19 A2999 RMK A01 T02030191  RH  093%=      5-min Rain = 0
KBY1 121112Z 06000KT 20/19 A2999 RMK A01 T02030190  RH  092%=      5-min Rain = 0
KBY1 121113Z 06001KT 20/19 A2999 RMK A01 T02030190  RH  092%=      5-min Rain = 0
KBY1 121114Z 07001KT 20/19 A2999 RMK A01 T02030191  RH  093%=      5-min Rain = 0
KBY1 121115Z 08001KT 20/19 A2999 RMK A01 T02040191  RH  093%=      5-min Rain = 0
KBY1 121116Z 08001KT 20/19 A2999 RMK A01 T02030192  RH  093%=      5-min Rain = 0
KBY1 121117Z 07002KT 20/19 A2999 RMK A01 T02030191  RH  092%=      5-min Rain = 0
KBY1 121118Z 07002KT 20/19 A2999 RMK A01 T02030189  RH  092%=      5-min Rain = 0
KBY1 121119Z 07002KT 20/19 A2999 RMK A01 T02030190  RH  092%=      5-min Rain = 0
KBY1 121120Z 07003KT 20/19 A2999 RMK A01 T02030190  RH  092%=      5-min Rain = 0
KBY1 121121Z 07003KT 20/19 A2999 RMK A01 T02040190  RH  092%=      5-min Rain = 0
KBY1 121122Z 06003KT 20/19 A2999 RMK A01 T02030190  RH  092%=      5-min Rain = 0
KBY1 121123Z 06002KT 20/19 A2999 RMK A01 T02040191  RH  092%=      5-min Rain = 0
KBY1 121124Z 05002KT 20/19 A2999 RMK A01 T02030191  RH  093%=      5-min Rain = 0
KBY1 121125Z 03001KT 20/19 A2999 RMK A01 T02040192  RH  093%=      5-min Rain = 0
KBY1 121126Z 05001KT 20/19 A2999 RMK A01 T02030192  RH  093%=      5-min Rain = 0
KBY1 121127Z 04001KT 20/19 A2999 RMK A01 T02040193  RH  093%=      5-min Rain = 0
KBY1 121128Z 04001KT 20/19 A2999 RMK A01 T02030192  RH  093%=      5-min Rain = 0
KBY1 121129Z 04002KT 20/19 A30 RMK A01 T02030191  RH  093%=      5-min Rain = 0
KBY1 121130Z 02001KT 20/19 A30 RMK A01 T02030190  RH  092%=      5-min Rain = 0
KBY1 121131Z 01001KT 20/19 A30 RMK A01 T02030188  RH  091%=      5-min Rain = 0
KBY1 121132Z 01001KT 20/19 A30 RMK A01 T02040188  RH  091%=      5-min Rain = 0
KBY1 121133Z 01001KT 20/19 A30 RMK A01 T02040189  RH  091%=      5-min Rain = 0
KBY1 121134Z 00001KT 21/19 A30 RMK A01 T02050189  RH  091%=      5-min Rain = 0
KBY1 121135Z 36001KT 21/19 A30 RMK A01 T02050188  RH  090%=      5-min Rain = 0
KBY1 121136Z 35002KT 21/19 A30 RMK A01 T02050187  RH  090%=      5-min Rain = 0
KBY1 121137Z 34002KT 21/19 A30 RMK A01 T02050188  RH  090%=      5-min Rain = 0
KBY1 121138Z 33003KT 21/19 A30 RMK A01 T02050187  RH  089%=      5-min Rain = 0
KBY1 121139Z 32003KT 21/19 A30 RMK A01 T02050187  RH  089%=      5-min Rain = 0
KBY1 121140Z 32004KT 21/19 A30 RMK A01 T02060187  RH  089%=      5-min Rain = 0
KBY1 121141Z 31005KT 21/19 A30 RMK A01 T02050186  RH  089%=      5-min Rain = 0
KBY1 121142Z 31006KT 21/19 A30 RMK A01 T02060187  RH  089%=      5-min Rain = 0
KBY1 121143Z 32005KT 21/19 A30 RMK A01 T02060188  RH  089%=      5-min Rain = 0
KBY1 121144Z 32003KT 21/19 A30 RMK A01 T02060188  RH  089%=      5-min Rain = 0
KBY1 121145Z 33003KT 21/19 A30 RMK A01 T02060188  RH  089%=      5-min Rain = 0
KBY1 121146Z 33002KT 21/19 A30 RMK A01 T02060188  RH  089%=      5-min Rain = 0
KBY1 121147Z 33002KT 21/19 A30 RMK A01 T02060187  RH  089%=      5-min Rain = 0
KBY1 121148Z 30002KT 21/19 A30 RMK A01 T02060188  RH  090%=      5-min Rain = 0
KBY1 121149Z 31003KT 21/19 A30 RMK A01 T02050188  RH  090%=      5-min Rain = 0
KBY1 121150Z 31003KT 21/19 A30 RMK A01 T02050189  RH  090%=      5-min Rain = 0
KBY1 121151Z 32002KT 21/19 A30 RMK A01 T02050189  RH  090%=      5-min Rain = 0
KBY1 121152Z 33003KT 21/19 A30 RMK A01 T02050189  RH  091%=      5-min Rain = 0
KBY1 121153Z 34001KT 21/19 A30 RMK A01 T02050190  RH  091%=      5-min Rain = 0
KBY1 121154Z 36001KT 21/19 A30 RMK A01 T02050190  RH  091%=      5-min Rain = 0
KBY1 121155Z 35001KT 21/19 A30 RMK A01 T02050190  RH  091%=      5-min Rain = 0
KBY1 121156Z 34002KT 21/19 A30 RMK A01 T02050190  RH  091%=      5-min Rain = 0
KBY1 121157Z 33002KT 21/19 A30 RMK A01 T02050191  RH  092%=      5-min Rain = 0
KBY1 121158Z 35001KT 21/19 A30 RMK A01 T02050190  RH  092%=      5-min Rain = 0
KBY1 121159Z 34003KT 21/19 A30 RMK A01 T02050191  RH  092%=      5-min Rain = 0
KBY1 121200Z 34003KT 21/19 A30 RMK A01 T02050190  RH  091%=      5-min Rain = 0
KBY1 121201Z 34003KT 21/19 A30 RMK A01 T02050190  RH  091%=      5-min Rain = 0
KBY1 121202Z 35003KT 21/19 A30 RMK A01 T02050190  RH  091%=      5-min Rain = 0
KBY1 121203Z 35002KT 21/19 A30 RMK A01 T02050190  RH  091%=      5-min Rain = 0
KBY1 121204Z 34002KT 21/19 A30 RMK A01 T02050190  RH  091%=      5-min Rain = 0
KBY1 121205Z 33002KT 21/19 A30 RMK A01 T02050190  RH  091%=      5-min Rain = 0
KBY1 121206Z 33002KT 21/19 A30 RMK A01 T02050191  RH  092%=      5-min Rain = 0
KBY1 121207Z 33002KT 21/19 A30 RMK A01 T02050191  RH  092%=      5-min Rain = 0
KBY1 121208Z 33001KT 21/19 A30 RMK A01 T02050191  RH  092%=      5-min Rain = 0
KBY1 121209Z 30000KT 21/19 A30 RMK A01 T02050192  RH  092%=      5-min Rain = 0
KBY1 121210Z 22000KT 20/19 A30 RMK A01 T02040191  RH  092%=      5-min Rain = 0
KBY1 121211Z 22001KT 20/19 A30 RMK A01 T02040191  RH  092%=      5-min Rain = 0
KBY1 121212Z 22001KT 20/19 A30 RMK A01 T02040190  RH  092%=      5-min Rain = 0
KBY1 121213Z 22001KT 20/19 A30 RMK A01 T02030190  RH  092%=      5-min Rain = 0
KBY1 121214Z 22002KT 20/19 A30 RMK A01 T02020189  RH  093%=      5-min Rain = 0
KBY1 121215Z 22002KT 20/19 A30 RMK A01 T02010189  RH  093%=      5-min Rain = 0
KBY1 121216Z 22002KT 20/19 A30 RMK A01 T02000189  RH  093%=      5-min Rain = 0
KBY1 121217Z 23002KT 20/19 A30 RMK A01 T02000189  RH  094%=      5-min Rain = 0
KBY1 121218Z 23002KT 20/19 A30 RMK A01 T01990189  RH  094%=      5-min Rain = 0
KBY1 121219Z 23002KT 20/19 A30 RMK A01 T01980189  RH  094%=      5-min Rain = 0
KBY1 121220Z 23002KT 20/19 A30 RMK A01 T01980190  RH  095%=      5-min Rain = 0
KBY1 121221Z 24002KT 20/19 A30 RMK A01 T01980190  RH  095%=      5-min Rain = 0
KBY1 121222Z 25002KT 20/19 A30 RMK A01 T01980190  RH  095%=      5-min Rain = 0
KBY1 121223Z 27001KT 20/19 A30 RMK A01 T01980190  RH  095%=      5-min Rain = 0
KBY1 121224Z 28001KT 20/19 A30 RMK A01 T01980191  RH  095%=      5-min Rain = 0
KBY1 121225Z 27001KT 20/19 A30 RMK A01 T01980191  RH  096%=      5-min Rain = 0
KBY1 121226Z 27002KT 20/19 A30 RMK A01 T01980190  RH  096%=      5-min Rain = 0
KBY1 121227Z 28002KT 20/19 A30 RMK A01 T01980191  RH  096%=      5-min Rain = 0
KBY1 121228Z 27002KT 20/19 A30 RMK A01 T01990192  RH  096%=      5-min Rain = 0
KBY1 121229Z 27002KT 20/19 A30 RMK A01 T01990191  RH  095%=      5-min Rain = 0
KBY1 121230Z 26002KT 20/19 A30 RMK A01 T02000191  RH  094%=      5-min Rain = 0
KBY1 121231Z 27002KT 20/19 A30 RMK A01 T02010190  RH  094%=      5-min Rain = 0
KBY1 121232Z 28002KT 20/19 A30 RMK A01 T02010190  RH  093%=      5-min Rain = 0
KBY1 121233Z 28002KT 20/19 A30 RMK A01 T02020191  RH  093%=      5-min Rain = 0
KBY1 121234Z 28002KT 20/19 A30 RMK A01 T02030191  RH  093%=      5-min Rain = 0
KBY1 121235Z 27001KT 20/19 A30 RMK A01 T02030190  RH  092%=      5-min Rain = 0
KBY1 121236Z 27001KT 20/19 A30 RMK A01 T02040190  RH  092%=      5-min Rain = 0
KBY1 121237Z 28001KT 21/19 A30 RMK A01 T02050190  RH  091%=      5-min Rain = 0
KBY1 121238Z 27001KT 21/19 A30 RMK A01 T02060190  RH  091%=      5-min Rain = 0
KBY1 121239Z 28001KT 21/19 A30 RMK A01 T02060191  RH  091%=      5-min Rain = 0
KBY1 121240Z 27001KT 21/19 A30 RMK A01 T02070191  RH  091%=      5-min Rain = 0
KBY1 121241Z 29000KT 21/19 A30 RMK A01 T02070191  RH  091%=      5-min Rain = 0
KBY1 121242Z 32000KT 21/19 A30 RMK A01 T02080191  RH  090%=      5-min Rain = 0
KBY1 121243Z 00000KT 21/19 A30 RMK A01 T02080192  RH  091%=      5-min Rain = 0
KBY1 121244Z 00000KT 21/19 A30 RMK A01 T02090193  RH  090%=      5-min Rain = 0
KBY1 121245Z 30000KT 21/19 A30 RMK A01 T02100192  RH  090%=      5-min Rain = 0
KBY1 121246Z 29001KT 21/19 A30 RMK A01 T02100191  RH  089%=      5-min Rain = 0
KBY1 121247Z 29001KT 21/19 A30 RMK A01 T02100190  RH  088%=      5-min Rain = 0
KBY1 121248Z 28000KT 21/19 A30 RMK A01 T02110191  RH  089%=      5-min Rain = 0
KBY1 121249Z 23000KT 21/19 A30 RMK A01 T02110191  RH  088%=      5-min Rain = 0
KBY1 121250Z 21001KT 21/19 A30 RMK A01 T02110191  RH  088%=      5-min Rain = 0
KBY1 121251Z 22001KT 21/19 A30 RMK A01 T02110191  RH  088%=      5-min Rain = 0
KBY1 121252Z 24001KT 21/19 A30 RMK A01 T02120191  RH  088%=      5-min Rain = 0
KBY1 121253Z 24001KT 21/19 A30 RMK A01 T02120191  RH  088%=      5-min Rain = 0
KBY1 121254Z 25001KT 21/19 A30 RMK A01 T02120191  RH  088%=      5-min Rain = 0
KBY1 121255Z 24001KT 21/19 A30 RMK A01 T02130191  RH  088%=      5-min Rain = 0
KBY1 121256Z 24001KT 21/19 A30 RMK A01 T02130192  RH  088%=      5-min Rain = 0
KBY1 121257Z 24001KT 21/19 A30 RMK A01 T02130192  RH  088%=      5-min Rain = 0
KBY1 121258Z 25001KT 21/19 A30 RMK A01 T02140193  RH  088%=      5-min Rain = 0
KBY1 121259Z 28001KT 22/19 A30 RMK A01 T02150193  RH  087%=      5-min Rain = 0
KBY1 121300Z 31000KT 22/19 A30 RMK A01 T02150192  RH  086%=      5-min Rain = 0
KBY1 121301Z 28000KT 22/19 A30 RMK A01 T02160192  RH  086%=      5-min Rain = 0
KBY1 121302Z 29001KT 22/19 A30 RMK A01 T02170191  RH  085%=      5-min Rain = 0
KBY1 121303Z 30001KT 22/19 A30 RMK A01 T02170188  RH  084%=      5-min Rain = 0
KBY1 121304Z 33000KT 22/19 A30 RMK A01 T02180188  RH  083%=      5-min Rain = 0
KBY1 121305Z 00000KT 22/19 A30 RMK A01 T02190188  RH  082%=      5-min Rain = 0
KBY1 121306Z 00000KT 22/19 A30 RMK A01 T02210186  RH  080%=      5-min Rain = 0
KBY1 121307Z 00000KT 22/19 A30 RMK A01 T02220186  RH  080%=      5-min Rain = 0
KBY1 121308Z 00000KT 22/19 A30 RMK A01 T02240189  RH  080%=      5-min Rain = 0
KBY1 121309Z 00000KT 23/19 A30 RMK A01 T02260189  RH  080%=      5-min Rain = 0
KBY1 121310Z 28001KT 23/19 A30 RMK A01 T02270190  RH  080%=      5-min Rain = 0
KBY1 121311Z 28001KT 23/19 A30 RMK A01 T02270188  RH  079%=      5-min Rain = 0
KBY1 121312Z 29000KT 23/19 A30 RMK A01 T02270188  RH  079%=      5-min Rain = 0
KBY1 121313Z 26000KT 23/19 A30 RMK A01 T02260188  RH  079%=      5-min Rain = 0
KBY1 121314Z 26001KT 23/19 A30 RMK A01 T02260188  RH  079%=      5-min Rain = 0
KBY1 121315Z 27001KT 23/19 A30 RMK A01 T02260186  RH  078%=      5-min Rain = 0
KBY1 121316Z 26001KT 23/19 A30 RMK A01 T02260187  RH  079%=      5-min Rain = 0
KBY1 121317Z 28001KT 23/19 A30 RMK A01 T02270187  RH  078%=      5-min Rain = 0
KBY1 121318Z 30002KT 23/19 A30 RMK A01 T02270186  RH  078%=      5-min Rain = 0
KBY1 121319Z 30001KT 23/18 A30 RMK A01 T02270184  RH  077%=      5-min Rain = 0
KBY1 121320Z 28001KT 23/18 A30 RMK A01 T02270184  RH  076%=      5-min Rain = 0
KBY1 121321Z 30000KT 23/19 A30 RMK A01 T02280186  RH  077%=      5-min Rain = 0
KBY1 121322Z 29000KT 23/19 A30 RMK A01 T02280185  RH  077%=      5-min Rain = 0
KBY1 121323Z 30001KT 23/19 A30 RMK A01 T02290185  RH  076%=      5-min Rain = 0
KBY1 121324Z 31000KT 23/19 A30 RMK A01 T02300186  RH  077%=      5-min Rain = 0
KBY1 121325Z 32002KT 23/18 A30 RMK A01 T02310183  RH  075%=      5-min Rain = 0
KBY1 121326Z 30002KT 23/18 A30 RMK A01 T02310180  RH  073%=      5-min Rain = 0
KBY1 121327Z 32002KT 23/18 A30 RMK A01 T02310181  RH  073%=      5-min Rain = 0
KBY1 121328Z 32002KT 23/18 A30 RMK A01 T02330183  RH  074%=      5-min Rain = 0
KBY1 121329Z 30000KT 23/18 A30 RMK A01 T02330180  RH  072%=      5-min Rain = 0
KBY1 121330Z 34001KT 23/18 A30 RMK A01 T02340180  RH  072%=      5-min Rain = 0
KBY1 121331Z 32002KT 24/18 A30 RMK A01 T02350179  RH  071%=      5-min Rain = 0
KBY1 121332Z 31002KT 24/18 A30 RMK A01 T02350181  RH  072%=      5-min Rain = 0
KBY1 121333Z 30002KT 24/18 A30 RMK A01 T02360177  RH  070%=      5-min Rain = 0
KBY1 121334Z 29003KT 24/18 A30 RMK A01 T02350176  RH  069%=      5-min Rain = 0
KBY1 121335Z 30002KT 24/18 A30 RMK A01 T02360178  RH  070%=      5-min Rain = 0
KBY1 121336Z 29003KT 24/18 A30 RMK A01 T02360177  RH  070%=      5-min Rain = 0
KBY1 121337Z 30002KT 24/18 A30 RMK A01 T02360177  RH  070%=      5-min Rain = 0
KBY1 121338Z 29002KT 24/18 A30 RMK A01 T02360176  RH  069%=      5-min Rain = 0
KBY1 121339Z 31002KT 24/18 A30 RMK A01 T02360176  RH  069%=      5-min Rain = 0
KBY1 121340Z 31002KT 24/18 A30 RMK A01 T02370179  RH  070%=      5-min Rain = 0
KBY1 121341Z 28001KT 24/18 A30 RMK A01 T02380179  RH  070%=      5-min Rain = 0
KBY1 121342Z 26001KT 24/18 A30 RMK A01 T02400178  RH  068%=      5-min Rain = 0
KBY1 121343Z 32001KT 24/18 A3001 RMK A01 T02410178  RH  068%=      5-min Rain = 0
KBY1 121344Z 33001KT 24/18 A3001 RMK A01 T02420179  RH  068%=      5-min Rain = 0
KBY1 121345Z 31003KT 24/18 A3001 RMK A01 T02420178  RH  067%=      5-min Rain = 0
KBY1 121346Z 30003KT 24/18 A3001 RMK A01 T02420177  RH  067%=      5-min Rain = 0
KBY1 121347Z 30004KT 24/17 A3001 RMK A01 T02430174  RH  066%=      5-min Rain = 0
KBY1 121348Z 27003KT 24/17 A3001 RMK A01 T02420174  RH  066%=      5-min Rain = 0
KBY1 121349Z 28003KT 24/17 A3001 RMK A01 T02420173  RH  065%=      5-min Rain = 0
KBY1 121350Z 27002KT 24/17 A3001 RMK A01 T02430170  RH  064%=      5-min Rain = 0
KBY1 121351Z 29004KT 24/17 A3001 RMK A01 T02430172  RH  065%=      5-min Rain = 0
KBY1 121352Z 29003KT 24/17 A3001 RMK A01 T02430172  RH  065%=      5-min Rain = 0
KBY1 121353Z 29004KT 24/17 A3001 RMK A01 T02440173  RH  064%=      5-min Rain = 0
KBY1 121354Z 28003KT 24/17 A3001 RMK A01 T02440170  RH  063%=      5-min Rain = 0
KBY1 121355Z 29003KT 24/17 A3001 RMK A01 T02430167  RH  063%=      5-min Rain = 0
KBY1 121356Z 30004KT 24/17 A3001 RMK A01 T02430171  RH  064%=      5-min Rain = 0
KBY1 121357Z 30004KT 24/17 A3001 RMK A01 T02430169  RH  063%=      5-min Rain = 0
KBY1 121358Z 31004KT 24/17 A3001 RMK A01 T02430168  RH  063%=      5-min Rain = 0
KBY1 121359Z 31003KT 24/17 A3001 RMK A01 T02430166  RH  062%=      5-min Rain = 0
KBY1 121400Z 30003KT 24/17 A3001 RMK A01 T02440170  RH  063%=      5-min Rain = 0
KBY1 121401Z 30002KT 25/17 A3001 RMK A01 T02450172  RH  064%=      5-min Rain = 0
KBY1 121402Z 27002KT 25/17 A3001 RMK A01 T02460168  RH  062%=      5-min Rain = 0
KBY1 121403Z 28002KT 25/17 A3001 RMK A01 T02460168  RH  062%=      5-min Rain = 0
KBY1 121404Z 30002KT 25/17 A3001 RMK A01 T02470169  RH  062%=      5-min Rain = 0
KBY1 121405Z 32002KT 25/17 A3001 RMK A01 T02480171  RH  063%=      5-min Rain = 0
KBY1 121406Z 33003KT 25/17 A3001 RMK A01 T02490172  RH  062%=      5-min Rain = 0
KBY1 121407Z 31003KT 25/17 A3001 RMK A01 T02490170  RH  062%=      5-min Rain = 0
KBY1 121408Z 30002KT 25/17 A3001 RMK A01 T02490168  RH  061%=      5-min Rain = 0
KBY1 121409Z 29003KT 25/17 A3001 RMK A01 T02490168  RH  061%=      5-min Rain = 0
KBY1 121410Z 27002KT 25/17 A30 RMK A01 T02500165  RH  059%=      5-min Rain = 0
KBY1 121411Z 23001KT 25/17 A30 RMK A01 T02500167  RH  060%=      5-min Rain = 0
KBY1 121412Z 30001KT 25/17 A30 RMK A01 T02510167  RH  060%=      5-min Rain = 0
KBY1 121413Z 27003KT 25/17 A30 RMK A01 T02520166  RH  059%=      5-min Rain = 0
KBY1 121414Z 26003KT 25/16 A30 RMK A01 T02530163  RH  058%=      5-min Rain = 0
KBY1 121415Z 27003KT 25/17 A30 RMK A01 T02530165  RH  058%=      5-min Rain = 0
KBY1 121416Z 29001KT 25/16 A30 RMK A01 T02530163  RH  057%=      5-min Rain = 0
KBY1 121417Z 33000KT 25/16 A30 RMK A01 T02520163  RH  058%=      5-min Rain = 0
KBY1 121418Z 00000KT 25/16 A30 RMK A01 T02530164  RH  058%=      5-min Rain = 0
KBY1 121419Z 20001KT 26/17 A30 RMK A01 T02550167  RH  058%=      5-min Rain = 0
KBY1 121420Z 25002KT 26/17 A30 RMK A01 T02570167  RH  057%=      5-min Rain = 0
KBY1 121421Z 26003KT 26/17 A30 RMK A01 T02570169  RH  058%=      5-min Rain = 0
KBY1 121422Z 27003KT 26/17 A30 RMK A01 T02580166  RH  057%=      5-min Rain = 0
KBY1 121423Z 26003KT 26/17 A30 RMK A01 T02580165  RH  057%=      5-min Rain = 0
KBY1 121424Z 25001KT 26/17 A30 RMK A01 T02570166  RH  057%=      5-min Rain = 0
KBY1 121425Z 24001KT 26/17 A30 RMK A01 T02570166  RH  057%=      5-min Rain = 0
KBY1 121426Z 26000KT 26/17 A30 RMK A01 T02580165  RH  057%=      5-min Rain = 0
KBY1 121427Z 28001KT 26/17 A30 RMK A01 T02590167  RH  057%=      5-min Rain = 0
KBY1 121428Z 25002KT 26/17 A30 RMK A01 T02600168  RH  057%=      5-min Rain = 0
KBY1 121429Z 24002KT 26/17 A30 RMK A01 T02600166  RH  056%=      5-min Rain = 0
KBY1 121430Z 25002KT 26/17 A30 RMK A01 T02590165  RH  056%=      5-min Rain = 0
KBY1 121431Z 27001KT 26/17 A30 RMK A01 T02580166  RH  057%=      5-min Rain = 0
KBY1 121432Z 32001KT 26/17 A30 RMK A01 T02580165  RH  057%=      5-min Rain = 0
KBY1 121433Z 33001KT 26/17 A30 RMK A01 T02590166  RH  057%=      5-min Rain = 0
KBY1 121434Z 31001KT 26/17 A30 RMK A01 T02600166  RH  056%=      5-min Rain = 0
KBY1 121435Z 26000KT 26/17 A30 RMK A01 T02600165  RH  056%=      5-min Rain = 0
KBY1 121436Z 00000KT 26/17 A30 RMK A01 T02600165  RH  056%=      5-min Rain = 0
KBY1 121437Z 25000KT 26/17 A30 RMK A01 T02610167  RH  056%=      5-min Rain = 0
KBY1 121438Z 18000KT 26/17 A30 RMK A01 T02640170  RH  056%=      5-min Rain = 0
KBY1 121439Z 21001KT 27/17 A30 RMK A01 T02670169  RH  055%=      5-min Rain = 0
KBY1 121440Z 29000KT 27/17 A30 RMK A01 T02680170  RH  055%=      5-min Rain = 0
KBY1 121441Z 02002KT 27/17 A30 RMK A01 T02700170  RH  054%=      5-min Rain = 0
KBY1 121442Z 27002KT 27/17 A30 RMK A01 T02710169  RH  054%=      5-min Rain = 0
KBY1 121443Z 26002KT 27/16 A30 RMK A01 T02710164  RH  052%=      5-min Rain = 0
KBY1 121444Z 27002KT 27/17 A30 RMK A01 T02690165  RH  053%=      5-min Rain = 0
KBY1 121445Z 31003KT 27/17 A30 RMK A01 T02690166  RH  053%=      5-min Rain = 0
KBY1 121446Z 34002KT 27/17 A30 RMK A01 T02690167  RH  054%=      5-min Rain = 0
KBY1 121447Z 01002KT 27/17 A30 RMK A01 T02690167  RH  053%=      5-min Rain = 0
KBY1 121448Z 36002KT 27/17 A30 RMK A01 T02700166  RH  053%=      5-min Rain = 0
KBY1 121449Z 32003KT 27/17 A30 RMK A01 T02700165  RH  053%=      5-min Rain = 0
KBY1 121450Z 31003KT 27/17 A30 RMK A01 T02700167  RH  053%=      5-min Rain = 0
KBY1 121451Z 31003KT 27/17 A30 RMK A01 T02710168  RH  053%=      5-min Rain = 0
KBY1 121452Z 27004KT 27/16 A30 RMK A01 T02730164  RH  051%=      5-min Rain = 0
KBY1 121453Z 26003KT 27/16 A30 RMK A01 T02720162  RH  051%=      5-min Rain = 0
KBY1 121454Z 28000KT 27/16 A30 RMK A01 T02700163  RH  052%=      5-min Rain = 0
KBY1 121455Z 29000KT 27/16 A30 RMK A01 T02700162  RH  052%=      5-min Rain = 0
KBY1 121456Z 32003KT 27/16 A30 RMK A01 T02710164  RH  052%=      5-min Rain = 0
KBY1 121457Z 31002KT 27/17 A30 RMK A01 T02710166  RH  052%=      5-min Rain = 0
KBY1 121458Z 28002KT 27/17 A30 RMK A01 T02710165  RH  052%=      5-min Rain = 0
KBY1 121459Z 32003KT 27/17 A30 RMK A01 T02710166  RH  053%=      5-min Rain = 0
KBY1 121500Z 28002KT 27/17 A30 RMK A01 T02710167  RH  053%=      5-min Rain = 0
KBY1 121501Z 23003KT 27/17 A30 RMK A01 T02730166  RH  052%=      5-min Rain = 0
KBY1 121502Z 22002KT 27/16 A30 RMK A01 T02740164  RH  051%=      5-min Rain = 0
KBY1 121503Z 25004KT 27/17 A30 RMK A01 T02740166  RH  052%=      5-min Rain = 0
KBY1 121504Z 27004KT 27/17 A30 RMK A01 T02740165  RH  051%=      5-min Rain = 0
KBY1 121505Z 26004KT 27/17 A30 RMK A01 T02740165  RH  051%=      5-min Rain = 0
KBY1 121506Z 26003KT 27/16 A30 RMK A01 T02720163  RH  051%=      5-min Rain = 0
KBY1 121507Z 23003KT 27/17 A30 RMK A01 T02720167  RH  053%=      5-min Rain = 0
KBY1 121508Z 25003KT 27/17 A30 RMK A01 T02740169  RH  053%=      5-min Rain = 0
KBY1 121509Z 31002KT 28/17 A30 RMK A01 T02770165  RH  050%=      5-min Rain = 0
KBY1 121510Z 31003KT 28/17 A30 RMK A01 T02780167  RH  051%=      5-min Rain = 0
KBY1 121511Z 25002KT 28/17 A30 RMK A01 T02790168  RH  051%=      5-min Rain = 0
KBY1 121512Z 29003KT 28/17 A30 RMK A01 T02810169  RH  051%=      5-min Rain = 0
KBY1 121513Z 30003KT 28/17 A30 RMK A01 T02820165  RH  049%=      5-min Rain = 0
KBY1 121514Z 29003KT 28/17 A30 RMK A01 T02810167  RH  050%=      5-min Rain = 0
KBY1 121515Z 28001KT 28/17 A30 RMK A01 T02810166  RH  050%=      5-min Rain = 0
KBY1 121516Z 31004KT 28/17 A30 RMK A01 T02810166  RH  050%=      5-min Rain = 0
KBY1 121517Z 33004KT 28/17 A30 RMK A01 T02810168  RH  050%=      5-min Rain = 0
KBY1 121518Z 32003KT 28/17 A30 RMK A01 T02820167  RH  050%=      5-min Rain = 0
KBY1 121519Z 32004KT 28/17 A30 RMK A01 T02820167  RH  049%=      5-min Rain = 0
KBY1 121520Z 33004KT 28/17 A30 RMK A01 T02820167  RH  050%=      5-min Rain = 0
KBY1 121521Z 30003KT 28/17 A30 RMK A01 T02830169  RH  050%=      5-min Rain = 0
KBY1 121522Z 34006KT 29/17 A30 RMK A01 T02850166  RH  048%=      5-min Rain = 0
KBY1 121523Z 32004KT 29/16 A30 RMK A01 T02850163  RH  047%=      5-min Rain = 0
KBY1 121524Z 30003KT 29/16 A30 RMK A01 T02850164  RH  048%=      5-min Rain = 0
KBY1 121525Z 28003KT 29/17 A30 RMK A01 T02870167  RH  048%=      5-min Rain = 0
KBY1 121526Z 25002KT 29/16 A30 RMK A01 T02890164  RH  047%=      5-min Rain = 0
KBY1 121527Z 25004KT 29/16 A30 RMK A01 T02900164  RH  046%=      5-min Rain = 0
KBY1 121528Z 27005KT 29/16 A30 RMK A01 T02900164  RH  046%=      5-min Rain = 0
KBY1 121529Z 29003KT 29/16 A30 RMK A01 T02900164  RH  047%=      5-min Rain = 0
KBY1 121530Z 29003KT 29/17 A30 RMK A01 T02890165  RH  047%=      5-min Rain = 0
KBY1 121531Z 27005KT 29/16 A30 RMK A01 T02900163  RH  046%=      5-min Rain = 0
KBY1 121532Z 26005KT 29/16 A30 RMK A01 T02900162  RH  046%=      5-min Rain = 0
KBY1 121533Z 25005KT 29/16 A30 RMK A01 T02900158  RH  045%=      5-min Rain = 0
KBY1 121534Z 26003KT 29/16 A30 RMK A01 T02900155  RH  044%=      5-min Rain = 0
KBY1 121535Z 29003KT 29/16 A30 RMK A01 T02900157  RH  045%=      5-min Rain = 0
KBY1 121536Z 29002KT 29/16 A30 RMK A01 T02900159  RH  045%=      5-min Rain = 0
KBY1 121537Z 29006KT 29/16 A30 RMK A01 T02910161  RH  045%=      5-min Rain = 0
KBY1 121538Z 29005KT 29/16 A30 RMK A01 T02910159  RH  045%=      5-min Rain = 0
KBY1 121539Z 27005KT 29/16 A30 RMK A01 T02900162  RH  046%=      5-min Rain = 0
KBY1 121540Z 29004KT 29/16 A30 RMK A01 T02900161  RH  046%=      5-min Rain = 0
KBY1 121541Z 30002KT 29/16 A30 RMK A01 T02910162  RH  046%=      5-min Rain = 0
KBY1 121542Z 30004KT 29/16 A30 RMK A01 T02920161  RH  045%=      5-min Rain = 0
KBY1 121543Z 31003KT 29/16 A30 RMK A01 T02930162  RH  045%=      5-min Rain = 0
KBY1 121544Z 26006KT 30/16 A30 RMK A01 T02950162  RH  045%=      5-min Rain = 0
KBY1 121545Z 26005KT 30/16 A30 RMK A01 T02960162  RH  044%=      5-min Rain = 0
KBY1 121546Z 29001KT 30/16 A30 RMK A01 T02960159  RH  044%=      5-min Rain = 0
KBY1 121547Z 25002KT 30/16 A30 RMK A01 T02960160  RH  044%=      5-min Rain = 0
KBY1 121548Z 26005KT 30/16 A30 RMK A01 T02960159  RH  043%=      5-min Rain = 0
KBY1 121549Z 26004KT 30/16 A30 RMK A01 T02970157  RH  043%=      5-min Rain = 0
KBY1 121550Z 30003KT 30/16 A30 RMK A01 T02970162  RH  044%=      5-min Rain = 0
KBY1 121551Z 33003KT 30/16 A30 RMK A01 T02990155  RH  042%=      5-min Rain = 0
KBY1 121552Z 28001KT 30/16 A30 RMK A01 T02990156  RH  042%=      5-min Rain = 0
KBY1 121553Z 27003KT 30/16 A30 RMK A01 T03000157  RH  042%=      5-min Rain = 0
KBY1 121554Z 28004KT 30/15 A30 RMK A01 T03010154  RH  041%=      5-min Rain = 0
KBY1 121555Z 29004KT 30/15 A30 RMK A01 T03030154  RH  041%=      5-min Rain = 0
KBY1 121556Z 31003KT 30/15 A30 RMK A01 T03030154  RH  041%=      5-min Rain = 0
KBY1 121557Z 30004KT 30/16 A30 RMK A01 T03030155  RH  041%=      5-min Rain = 0
KBY1 121558Z 29007KT 30/15 A30 RMK A01 T03030154  RH  041%=      5-min Rain = 0
KBY1 121559Z 28004KT 30/16 A30 RMK A01 T03030156  RH  041%=      5-min Rain = 0
KBY1 121600Z 27005G10KT 30/16 A30 RMK A01 T03030157  RH  041%=      5-min Rain = 0
KBY1 121601Z 28007KT 30/16 A30 RMK A01 T03030155  RH  041%=      5-min Rain = 0
KBY1 121602Z 27005KT 30/15 A30 RMK A01 T03030154  RH  040%=      5-min Rain = 0
KBY1 121603Z 25005KT 30/16 A30 RMK A01 T03030158  RH  042%=      5-min Rain = 0
KBY1 121604Z 23005KT 30/16 A30 RMK A01 T03030156  RH  041%=      5-min Rain = 0
KBY1 121605Z 27005KT 30/16 A30 RMK A01 T03040158  RH  041%=      5-min Rain = 0
KBY1 121606Z 27007KT 31/16 A30 RMK A01 T03050158  RH  041%=      5-min Rain = 0
KBY1 121607Z 26006KT 31/16 A30 RMK A01 T03070157  RH  040%=      5-min Rain = 0
KBY1 121608Z 26006KT 31/16 A30 RMK A01 T03070156  RH  040%=      5-min Rain = 0
KBY1 121609Z 28005KT 31/16 A30 RMK A01 T03070157  RH  040%=      5-min Rain = 0
KBY1 121610Z 26007KT 31/16 A30 RMK A01 T03070156  RH  040%=      5-min Rain = 0
KBY1 121611Z 26008KT 31/15 A30 RMK A01 T03090154  RH  039%=      5-min Rain = 0
KBY1 121612Z 27005KT 31/15 A30 RMK A01 T03090154  RH  039%=      5-min Rain = 0
KBY1 121613Z 30006KT 31/15 A30 RMK A01 T03080154  RH  039%=      5-min Rain = 0
KBY1 121614Z 28006KT 31/15 A30 RMK A01 T03080154  RH  039%=      5-min Rain = 0
KBY1 121615Z 29005KT 31/15 A30 RMK A01 T03080153  RH  039%=      5-min Rain = 0
KBY1 121616Z 27005KT 31/15 A30 RMK A01 T03090152  RH  039%=      5-min Rain = 0
KBY1 121617Z 27005KT 31/15 A30 RMK A01 T03100152  RH  038%=      5-min Rain = 0
KBY1 121618Z 26004KT 31/15 A30 RMK A01 T03090150  RH  038%=      5-min Rain = 0
KBY1 121619Z 27005KT 31/15 A30 RMK A01 T03080152  RH  039%=      5-min Rain = 0
KBY1 121620Z 26004KT 31/15 A30 RMK A01 T03090152  RH  039%=      5-min Rain = 0
KBY1 121621Z 26005KT 31/15 A30 RMK A01 T03100153  RH  039%=      5-min Rain = 0
KBY1 121622Z 26005KT 31/15 A30 RMK A01 T03100152  RH  038%=      5-min Rain = 0
KBY1 121623Z 25005KT 31/15 A30 RMK A01 T03100152  RH  038%=      5-min Rain = 0
KBY1 121624Z 23007KT 31/15 A30 RMK A01 T03090154  RH  039%=      5-min Rain = 0
KBY1 121625Z 24007KT 31/16 A30 RMK A01 T03110155  RH  039%=      5-min Rain = 0
KBY1 121626Z 24005KT 31/16 A30 RMK A01 T03120155  RH  039%=      5-min Rain = 0
KBY1 121627Z 23005KT 31/15 A30 RMK A01 T03130152  RH  038%=      5-min Rain = 0
KBY1 121628Z 23004KT 31/15 A30 RMK A01 T03130154  RH  038%=      5-min Rain = 0
KBY1 121629Z 21002KT 31/15 A30 RMK A01 T03130153  RH  038%=      5-min Rain = 0
KBY1 121630Z 22001KT 31/15 A30 RMK A01 T03130153  RH  038%=      5-min Rain = 0
KBY1 121631Z 29003KT 31/16 A30 RMK A01 T03130155  RH  038%=      5-min Rain = 0
KBY1 121632Z 27005KT 32/16 A30 RMK A01 T03150156  RH  038%=      5-min Rain = 0
KBY1 121633Z 27004KT 32/16 A30 RMK A01 T03150157  RH  039%=      5-min Rain = 0
KBY1 121634Z 26004KT 32/16 A30 RMK A01 T03150156  RH  038%=      5-min Rain = 0
KBY1 121635Z 30004KT 32/16 A30 RMK A01 T03150155  RH  038%=      5-min Rain = 0
KBY1 121636Z 29003KT 31/16 A30 RMK A01 T03140156  RH  039%=      5-min Rain = 0
KBY1 121637Z 30006KT 31/16 A30 RMK A01 T03140158  RH  039%=      5-min Rain = 0
KBY1 121638Z 29005KT 32/16 A30 RMK A01 T03160156  RH  038%=      5-min Rain = 0
KBY1 121639Z 31004KT 32/16 A30 RMK A01 T03160157  RH  038%=      5-min Rain = 0
KBY1 121640Z 31002KT 32/16 A30 RMK A01 T03150157  RH  039%=      5-min Rain = 0
KBY1 121641Z 27003KT 32/16 A30 RMK A01 T03170158  RH  038%=      5-min Rain = 0
KBY1 121642Z 26004KT 32/16 A30 RMK A01 T03170157  RH  038%=      5-min Rain = 0
KBY1 121643Z 25004KT 32/16 A30 RMK A01 T03170155  RH  038%=      5-min Rain = 0
KBY1 121644Z 25002KT 32/16 A30 RMK A01 T03170155  RH  038%=      5-min Rain = 0
KBY1 121645Z 30002KT 32/16 A30 RMK A01 T03160155  RH  038%=      5-min Rain = 0
KBY1 121646Z 33004KT 32/16 A30 RMK A01 T03170158  RH  038%=      5-min Rain = 0
KBY1 121647Z 32004KT 32/16 A30 RMK A01 T03180157  RH  038%=      5-min Rain = 0
KBY1 121648Z 29007KT 32/16 A30 RMK A01 T03190156  RH  037%=      5-min Rain = 0
KBY1 121649Z 25007KT 32/16 A30 RMK A01 T03200155  RH  037%=      5-min Rain = 0
KBY1 121650Z 27006KT 32/16 A30 RMK A01 T03200155  RH  037%=      5-min Rain = 0
KBY1 121651Z 28003KT 32/15 A30 RMK A01 T03190153  RH  037%=      5-min Rain = 0
KBY1 121652Z 30005KT 32/15 A30 RMK A01 T03180154  RH  037%=      5-min Rain = 0
KBY1 121653Z 29004KT 32/16 A30 RMK A01 T03180155  RH  037%=      5-min Rain = 0
KBY1 121654Z 31002KT 32/16 A30 RMK A01 T03190157  RH  038%=      5-min Rain = 0
KBY1 121655Z 28004KT 32/16 A30 RMK A01 T03210156  RH  037%=      5-min Rain = 0
KBY1 121656Z 28005KT 32/16 A30 RMK A01 T03220156  RH  037%=      5-min Rain = 0
KBY1 121657Z 26004KT 32/15 A30 RMK A01 T03230153  RH  036%=      5-min Rain = 0
KBY1 121658Z 26002KT 32/16 A30 RMK A01 T03230155  RH  036%=      5-min Rain = 0
KBY1 121659Z 32002KT 33/16 A30 RMK A01 T03250159  RH  037%=      5-min Rain = 0
KBY1 121700Z 01002KT 33/16 A30 RMK A01 T03260159  RH  037%=      5-min Rain = 0
KBY1 121701Z 32004KT 33/16 A30 RMK A01 T03280158  RH  036%=      5-min Rain = 0
KBY1 121702Z 31004KT 33/16 A30 RMK A01 T03300156  RH  035%=      5-min Rain = 0
KBY1 121703Z 27004KT 33/15 A30 RMK A01 T03290154  RH  035%=      5-min Rain = 0
KBY1 121704Z 25003KT 33/15 A30 RMK A01 T03290153  RH  035%=      5-min Rain = 0
KBY1 121705Z 30006KT 33/15 A30 RMK A01 T03290153  RH  035%=      5-min Rain = 0
KBY1 121706Z 29004KT 33/15 A30 RMK A01 T03290153  RH  035%=      5-min Rain = 0
KBY1 121707Z 27003KT 33/15 A30 RMK A01 T03280154  RH  035%=      5-min Rain = 0
KBY1 121708Z 30002KT 33/16 A30 RMK A01 T03290158  RH  036%=      5-min Rain = 0
KBY1 121709Z 30002KT 33/16 A30 RMK A01 T03320159  RH  035%=      5-min Rain = 0
KBY1 121710Z 29007KT 33/16 A30 RMK A01 T03340157  RH  035%=      5-min Rain = 0
KBY1 121711Z 29007KT 33/15 A30 RMK A01 T03330151  RH  034%=      5-min Rain = 0
KBY1 121712Z 29006KT 33/15 A30 RMK A01 T03280152  RH  035%=      5-min Rain = 0
KBY1 121713Z 23006KT 33/15 A30 RMK A01 T03280153  RH  035%=      5-min Rain = 0
KBY1 121714Z 23005KT 33/15 A30 RMK A01 T03280152  RH  035%=      5-min Rain = 0
KBY1 121715Z 30002KT 33/15 A30 RMK A01 T03270153  RH  035%=      5-min Rain = 0
KBY1 121716Z 28004KT 33/15 A30 RMK A01 T03280152  RH  035%=      5-min Rain = 0
KBY1 121717Z 25009KT 33/15 A2999 RMK A01 T03280154  RH  035%=      5-min Rain = 0
KBY1 121718Z 25006KT 33/15 A30 RMK A01 T03260154  RH  036%=      5-min Rain = 0
KBY1 121719Z 29004KT 33/15 A30 RMK A01 T03260154  RH  036%=      5-min Rain = 0
KBY1 121720Z 29004KT 33/16 A30 RMK A01 T03280155  RH  035%=      5-min Rain = 0
KBY1 121721Z 30006KT 33/16 A30 RMK A01 T03310156  RH  035%=      5-min Rain = 0
KBY1 121722Z 29004KT 33/15 A30 RMK A01 T03310154  RH  035%=      5-min Rain = 0
KBY1 121723Z 31004KT 33/15 A30 RMK A01 T03280154  RH  035%=      5-min Rain = 0
KBY1 121724Z 01002KT 33/15 A2999 RMK A01 T03270152  RH  035%=      5-min Rain = 0
KBY1 121725Z 03003KT 33/15 A2999 RMK A01 T03250153  RH  035%=      5-min Rain = 0
KBY1 121726Z 01003KT 33/16 A2999 RMK A01 T03270156  RH  036%=      5-min Rain = 0
KBY1 121727Z 31002KT 33/16 A2999 RMK A01 T03310158  RH  035%=      5-min Rain = 0
KBY1 121728Z 25003KT 33/16 A2999 RMK A01 T03340158  RH  035%=      5-min Rain = 0
KBY1 121729Z 20004KT 34/16 A2999 RMK A01 T03380160  RH  035%=      5-min Rain = 0
KBY1 121730Z 17001KT 34/16 A2999 RMK A01 T03390158  RH  034%=      5-min Rain = 0
KBY1 121731Z 24003KT 34/16 A2999 RMK A01 T03400157  RH  034%=      5-min Rain = 0
KBY1 121732Z 22001KT 34/16 A2999 RMK A01 T03400155  RH  033%=      5-min Rain = 0
KBY1 121733Z 02001KT 34/16 A2999 RMK A01 T03380155  RH  033%=      5-min Rain = 0
KBY1 121734Z 33001KT 34/15 A2999 RMK A01 T03380154  RH  033%=      5-min Rain = 0
KBY1 121735Z 32004KT 34/15 A2999 RMK A01 T03370153  RH  033%=      5-min Rain = 0
KBY1 121736Z 31004KT 34/15 A2999 RMK A01 T03360151  RH  033%=      5-min Rain = 0
KBY1 121737Z 34004KT 33/15 A2999 RMK A01 T03330153  RH  034%=      5-min Rain = 0
KBY1 121738Z 35004KT 33/15 A30 RMK A01 T03340152  RH  034%=      5-min Rain = 0
KBY1 121739Z 31004KT 33/15 A30 RMK A01 T03340153  RH  034%=      5-min Rain = 0
KBY1 121740Z 31004KT 34/16 A30 RMK A01 T03350156  RH  034%=      5-min Rain = 0
KBY1 121741Z 32004KT 34/15 A2999 RMK A01 T03360151  RH  033%=      5-min Rain = 0
KBY1 121742Z 33006KT 34/15 A2999 RMK A01 T03350154  RH  034%=      5-min Rain = 0
KBY1 121743Z 33004KT 34/16 A30 RMK A01 T03350155  RH  034%=      5-min Rain = 0
KBY1 121744Z 26004KT 34/16 A30 RMK A01 T03370157  RH  034%=      5-min Rain = 0
KBY1 121745Z 24004KT 34/16 A2999 RMK A01 T03400156  RH  033%=      5-min Rain = 0
KBY1 121746Z 24006KT 34/15 A2999 RMK A01 T03400154  RH  033%=      5-min Rain = 0
KBY1 121747Z 23004KT 34/15 A30 RMK A01 T03370153  RH  033%=      5-min Rain = 0
KBY1 121748Z 23003KT 34/15 A30 RMK A01 T03360152  RH  033%=      5-min Rain = 0
KBY1 121749Z 22003KT 34/15 A2999 RMK A01 T03350152  RH  033%=      5-min Rain = 0
KBY1 121750Z 24002KT 33/15 A2999 RMK A01 T03340153  RH  034%=      5-min Rain = 0
KBY1 121751Z 23001KT 33/15 A2999 RMK A01 T03340152  RH  034%=      5-min Rain = 0
KBY1 121752Z 17002KT 33/15 A2999 RMK A01 T03340152  RH  034%=      5-min Rain = 0
KBY1 121753Z 23002KT 33/15 A2999 RMK A01 T03340152  RH  033%=      5-min Rain = 0
KBY1 121754Z 27002KT 33/15 A2999 RMK A01 T03340151  RH  033%=      5-min Rain = 0
KBY1 121755Z 07002KT 33/15 A2999 RMK A01 T03320151  RH  034%=      5-min Rain = 0
KBY1 121756Z 07003KT 33/15 A2999 RMK A01 T03320152  RH  034%=      5-min Rain = 0
KBY1 121757Z 07002KT 33/15 A2999 RMK A01 T03330152  RH  034%=      5-min Rain = 0
KBY1 121758Z 10002KT 33/15 A2999 RMK A01 T03330151  RH  034%=      5-min Rain = 0
KBY1 121759Z 17001KT 33/15 A2999 RMK A01 T03340154  RH  034%=      5-min Rain = 0
KBY1 121800Z 17005KT 34/15 A2999 RMK A01 T03360154  RH  034%=      5-min Rain = 0
KBY1 121801Z 17004KT 34/15 A2999 RMK A01 T03370152  RH  033%=      5-min Rain = 0
KBY1 121802Z 17005KT 34/15 A2999 RMK A01 T03370153  RH  033%=      5-min Rain = 0
KBY1 121803Z 26006KT 34/16 A2999 RMK A01 T03380155  RH  034%=      5-min Rain = 0
KBY1 121804Z 33005KT 34/16 A2999 RMK A01 T03410155  RH  033%=      5-min Rain = 0
KBY1 121805Z 33006KT 34/15 A2999 RMK A01 T03420152  RH  032%=      5-min Rain = 0
KBY1 121806Z 28006KT 34/15 A2999 RMK A01 T03410151  RH  032%=      5-min Rain = 0
KBY1 121807Z 30005KT 34/15 A2999 RMK A01 T03390152  RH  033%=      5-min Rain = 0
KBY1 121808Z 32004KT 34/15 A2999 RMK A01 T03400151  RH  032%=      5-min Rain = 0
KBY1 121809Z 31005KT 34/15 A2999 RMK A01 T03410152  RH  032%=      5-min Rain = 0
KBY1 121810Z 28007KT 34/15 A2999 RMK A01 T03420152  RH  032%=      5-min Rain = 0
KBY1 121811Z 25005KT 34/15 A2999 RMK A01 T03420152  RH  032%=      5-min Rain = 0
KBY1 121812Z 22003KT 34/15 A2998 RMK A01 T03400150  RH  032%=      5-min Rain = 0
KBY1 121813Z 26003KT 34/15 A2998 RMK A01 T03390153  RH  033%=      5-min Rain = 0
KBY1 121814Z 31005KT 34/15 A2998 RMK A01 T03420152  RH  032%=      5-min Rain = 0
KBY1 121815Z 32005KT 34/15 A2998 RMK A01 T03430152  RH  032%=      5-min Rain = 0
KBY1 121816Z 34005KT 34/15 A2998 RMK A01 T03420151  RH  032%=      5-min Rain = 0
KBY1 121817Z 34005KT 34/15 A2998 RMK A01 T03400151  RH  032%=      5-min Rain = 0
KBY1 121818Z 35003KT 34/15 A2998 RMK A01 T03400151  RH  032%=      5-min Rain = 0
KBY1 121819Z 01001KT 34/15 A2998 RMK A01 T03400149  RH  032%=      5-min Rain = 0
KBY1 121820Z 07001KT 34/15 A2998 RMK A01 T03400150  RH  032%=      5-min Rain = 0
KBY1 121821Z 10003KT 34/15 A2998 RMK A01 T03400149  RH  032%=      5-min Rain = 0
KBY1 121822Z 13002KT 34/15 A2998 RMK A01 T03390150  RH  032%=      5-min Rain = 0
KBY1 121823Z 12003KT 34/15 A2998 RMK A01 T03390150  RH  032%=      5-min Rain = 0
KBY1 121824Z 13003KT 34/15 A2998 RMK A01 T03400152  RH  032%=      5-min Rain = 0
KBY1 121825Z 09001KT 34/15 A2998 RMK A01 T03430152  RH  032%=      5-min Rain = 0
KBY1 121826Z 02002KT 35/15 A2998 RMK A01 T03450152  RH  032%=      5-min Rain = 0
KBY1 121827Z 03003KT 35/15 A2998 RMK A01 T03460153  RH  031%=      5-min Rain = 0
KBY1 121828Z 23003KT 35/15 A2998 RMK A01 T03470152  RH  031%=      5-min Rain = 0
KBY1 121829Z 25004KT 35/15 A2998 RMK A01 T03470153  RH  031%=      5-min Rain = 0
KBY1 121830Z 26005KT 35/15 A2998 RMK A01 T03480151  RH  031%=      5-min Rain = 0
KBY1 121831Z 27003KT 35/15 A2998 RMK A01 T03450150  RH  031%=      5-min Rain = 0
KBY1 121832Z 27003KT 34/15 A2998 RMK A01 T03430149  RH  031%=      5-min Rain = 0
KBY1 121833Z 29004KT 34/15 A2998 RMK A01 T03420151  RH  032%=      5-min Rain = 0
KBY1 121834Z 29007KT 35/15 A2998 RMK A01 T03450153  RH  032%=      5-min Rain = 0
KBY1 121835Z 27005KT 35/15 A2998 RMK A01 T03470151  RH  031%=      5-min Rain = 0
KBY1 121836Z 25007KT 35/15 A2998 RMK A01 T03460151  RH  031%=      5-min Rain = 0
KBY1 121837Z 25006KT 35/15 A2998 RMK A01 T03460151  RH  031%=      5-min Rain = 0
KBY1 121838Z 25004KT 35/15 A2998 RMK A01 T03460151  RH  031%=      5-min Rain = 0
KBY1 121839Z 28001KT 35/15 A2998 RMK A01 T03470151  RH  031%=      5-min Rain = 0
KBY1 121840Z 23004KT 35/15 A2998 RMK A01 T03490153  RH  031%=      5-min Rain = 0
KBY1 121841Z 24004KT 35/15 A2998 RMK A01 T03510151  RH  030%=      5-min Rain = 0
KBY1 121842Z 19003KT 35/15 A2998 RMK A01 T03480150  RH  031%=      5-min Rain = 0
KBY1 121843Z 13002KT 35/15 A2998 RMK A01 T03470148  RH  030%=      5-min Rain = 0
KBY1 121844Z 15002KT 35/15 A2998 RMK A01 T03450147  RH  031%=      5-min Rain = 0
KBY1 121845Z 15004KT 34/15 A2998 RMK A01 T03440148  RH  031%=      5-min Rain = 0
KBY1 121846Z 13004KT 34/15 A2998 RMK A01 T03420148  RH  031%=      5-min Rain = 0
KBY1 121847Z 12006KT 34/15 A2998 RMK A01 T03420149  RH  032%=      5-min Rain = 0
KBY1 121848Z 13005KT 34/15 A2998 RMK A01 T03420150  RH  032%=      5-min Rain = 0
KBY1 121849Z 10005KT 34/15 A2998 RMK A01 T03430150  RH  031%=      5-min Rain = 0
KBY1 121850Z 12004KT 34/15 A2998 RMK A01 T03440148  RH  031%=      5-min Rain = 0
KBY1 121851Z 10003KT 34/15 A2998 RMK A01 T03430148  RH  031%=      5-min Rain = 0
KBY1 121852Z 09003KT 34/15 A2998 RMK A01 T03420148  RH  031%=      5-min Rain = 0
KBY1 121853Z 09004KT 34/15 A2997 RMK A01 T03420149  RH  031%=      5-min Rain = 0
KBY1 121854Z 09006KT 35/15 A2997 RMK A01 T03450151  RH  031%=      5-min Rain = 0
KBY1 121855Z 09005KT 35/15 A2997 RMK A01 T03470153  RH  031%=      5-min Rain = 0
KBY1 121856Z 06005KT 35/15 A2997 RMK A01 T03520153  RH  031%=      5-min Rain = 0
KBY1 121857Z 07005KT 35/15 A2997 RMK A01 T03520151  RH  030%=      5-min Rain = 0
KBY1 121858Z 08006KT 35/15 A2997 RMK A01 T03510153  RH  031%=      5-min Rain = 0
KBY1 121859Z 06005KT 35/15 A2997 RMK A01 T03530153  RH  030%=      5-min Rain = 0
KBY1 121900Z 05004KT 36/16 A2997 RMK A01 T03550155  RH  031%=      5-min Rain = 0
KBY1 121901Z 02004KT 36/16 A2997 RMK A01 T03590156  RH  030%=      5-min Rain = 0
KBY1 121902Z 00005KT 36/15 A2997 RMK A01 T03610153  RH  029%=      5-min Rain = 0
KBY1 121903Z 36004KT 36/15 A2997 RMK A01 T03600154  RH  029%=      5-min Rain = 0
KBY1 121904Z 00004KT 36/15 A2997 RMK A01 T03590152  RH  029%=      5-min Rain = 0
KBY1 121905Z 06005KT 36/15 A2997 RMK A01 T03570152  RH  029%=      5-min Rain = 0
KBY1 121906Z 04007KT 36/15 A2997 RMK A01 T03560153  RH  030%=      5-min Rain = 0
KBY1 121907Z 04008KT 36/15 A2997 RMK A01 T03560151  RH  030%=      5-min Rain = 0
KBY1 121908Z 04006KT 35/15 A2997 RMK A01 T03530151  RH  030%=      5-min Rain = 0
KBY1 121909Z 02004G9KT 35/15 A2997 RMK A01 T03520150  RH  030%=      5-min Rain = 0
KBY1 121910Z 02002KT 35/15 A2997 RMK A01 T03490147  RH  030%=      5-min Rain = 0
KBY1 121911Z 00001KT 35/15 A2997 RMK A01 T03460147  RH  030%=      5-min Rain = 0
KBY1 121912Z 02002KT 35/15 A2997 RMK A01 T03450147  RH  031%=      5-min Rain = 0
KBY1 121913Z 05003KT 35/15 A2997 RMK A01 T03470151  RH  031%=      5-min Rain = 0
KBY1 121914Z 08006KT 35/15 A2997 RMK A01 T03520154  RH  031%=      5-min Rain = 0
KBY1 121915Z 09005KT 35/15 A2997 RMK A01 T03530152  RH  030%=      5-min Rain = 0
KBY1 121916Z 10004KT 35/15 A2997 RMK A01 T03520150  RH  030%=      5-min Rain = 0
KBY1 121917Z 09006KT 35/15 A2997 RMK A01 T03510152  RH  031%=      5-min Rain = 0
KBY1 121918Z 09005KT 35/15 A2997 RMK A01 T03530151  RH  030%=      5-min Rain = 0
KBY1 121919Z 10003KT 35/15 A2997 RMK A01 T03500149  RH  030%=      5-min Rain = 0
KBY1 121920Z 08004KT 35/15 A2997 RMK A01 T03470151  RH  031%=      5-min Rain = 0
KBY1 121921Z 08003KT 35/15 A2997 RMK A01 T03470150  RH  031%=      5-min Rain = 0
KBY1 121922Z 08002KT 35/15 A2997 RMK A01 T03470149  RH  031%=      5-min Rain = 0
KBY1 121923Z 06004KT 35/15 A2997 RMK A01 T03490150  RH  031%=      5-min Rain = 0
KBY1 121924Z 07004KT 35/15 A2997 RMK A01 T03510151  RH  030%=      5-min Rain = 0
KBY1 121925Z 06004KT 35/15 A2997 RMK A01 T03530152  RH  030%=      5-min Rain = 0
KBY1 121926Z 06002KT 35/15 A2996 RMK A01 T03540149  RH  029%=      5-min Rain = 0
KBY1 121927Z 10003KT 35/15 A2996 RMK A01 T03530152  RH  030%=      5-min Rain = 0
KBY1 121928Z 09002KT 35/15 A2996 RMK A01 T03530150  RH  030%=      5-min Rain = 0
KBY1 121929Z 06001KT 35/15 A2996 RMK A01 T03510150  RH  030%=      5-min Rain = 0
KBY1 121930Z 06004KT 35/15 A2996 RMK A01 T03510151  RH  030%=      5-min Rain = 0
KBY1 121931Z 05004KT 35/15 A2996 RMK A01 T03510150  RH  030%=      5-min Rain = 0
KBY1 121932Z 07005KT 35/15 A2996 RMK A01 T03490153  RH  031%=      5-min Rain = 0
KBY1 121933Z 08006KT 35/15 A2996 RMK A01 T03480151  RH  031%=      5-min Rain = 0
KBY1 121934Z 10006KT 35/15 A2996 RMK A01 T03470152  RH  031%=      5-min Rain = 0
KBY1 121935Z 10006KT 35/15 A2996 RMK A01 T03480151  RH  031%=      5-min Rain = 0
KBY1 121936Z 11007KT 35/16 A2996 RMK A01 T03510155  RH  031%=      5-min Rain = 0
KBY1 121937Z 11007KT 35/15 A2996 RMK A01 T03530154  RH  030%=      5-min Rain = 0
KBY1 121938Z 12006KT 36/15 A2996 RMK A01 T03550152  RH  030%=      5-min Rain = 0
KBY1 121939Z 11006KT 36/15 A2996 RMK A01 T03560152  RH  030%=      5-min Rain = 0
KBY1 121940Z 11005KT 36/15 A2996 RMK A01 T03550150  RH  029%=      5-min Rain = 0
KBY1 121941Z 11004KT 35/15 A2996 RMK A01 T03540153  RH  030%=      5-min Rain = 0
KBY1 121942Z 18005KT 36/15 A2996 RMK A01 T03560151  RH  030%=      5-min Rain = 0
KBY1 121943Z 19002KT 35/15 A2996 RMK A01 T03530150  RH  030%=      5-min Rain = 0
KBY1 121944Z 19003KT 35/15 A2996 RMK A01 T03520151  RH  030%=      5-min Rain = 0
KBY1 121945Z 22003KT 35/15 A2996 RMK A01 T03520148  RH  030%=      5-min Rain = 0
KBY1 121946Z 26001KT 35/15 A2996 RMK A01 T03510150  RH  030%=      5-min Rain = 0
KBY1 121947Z 10003KT 35/15 A2996 RMK A01 T03500148  RH  030%=      5-min Rain = 0
KBY1 121948Z 06002KT 35/15 A2996 RMK A01 T03490145  RH  029%=      5-min Rain = 0
KBY1 121949Z 05001KT 35/15 A2996 RMK A01 T03490147  RH  030%=      5-min Rain = 0
KBY1 121950Z 10001KT 35/15 A2996 RMK A01 T03530151  RH  030%=      5-min Rain = 0
KBY1 121951Z 16003KT 36/15 A2996 RMK A01 T03560150  RH  029%=      5-min Rain = 0
KBY1 121952Z 18005KT 36/15 A2996 RMK A01 T03570152  RH  029%=      5-min Rain = 0
KBY1 121953Z 21003KT 36/15 A2995 RMK A01 T03550150  RH  029%=      5-min Rain = 0
KBY1 121954Z 19003KT 35/15 A2995 RMK A01 T03520149  RH  030%=      5-min Rain = 0
KBY1 121955Z 15002KT 35/15 A2995 RMK A01 T03500148  RH  030%=      5-min Rain = 0
KBY1 121956Z 10003KT 35/15 A2995 RMK A01 T03490148  RH  030%=      5-min Rain = 0
KBY1 121957Z 12001KT 35/15 A2995 RMK A01 T03480148  RH  030%=      5-min Rain = 0
KBY1 121958Z 25001KT 35/15 A2995 RMK A01 T03460147  RH  030%=      5-min Rain = 0
KBY1 121959Z 28000KT 35/15 A2995 RMK A01 T03460147  RH  030%=      5-min Rain = 0
KBY1 122000Z 32000KT 35/15 A2995 RMK A01 T03470147  RH  030%=      5-min Rain = 0
KBY1 122001Z 07003KT 35/15 A2995 RMK A01 T03480148  RH  030%=      5-min Rain = 0
KBY1 122002Z 08002KT 35/15 A2995 RMK A01 T03480150  RH  031%=      5-min Rain = 0
KBY1 122003Z 35002KT 35/15 A2995 RMK A01 T03490151  RH  031%=      5-min Rain = 0
KBY1 122004Z 07002KT 35/15 A2995 RMK A01 T03510152  RH  030%=      5-min Rain = 0
KBY1 122005Z 09005KT 35/15 A2995 RMK A01 T03520152  RH  030%=      5-min Rain = 0
KBY1 122006Z 10003KT 35/15 A2995 RMK A01 T03520151  RH  030%=      5-min Rain = 0
KBY1 122007Z 09004KT 35/15 A2995 RMK A01 T03500152  RH  031%=      5-min Rain = 0
KBY1 122008Z 04005KT 35/15 A2995 RMK A01 T03480150  RH  031%=      5-min Rain = 0
KBY1 122009Z 03003KT 35/15 A2995 RMK A01 T03480151  RH  031%=      5-min Rain = 0
KBY1 122010Z 01002KT 35/15 A2995 RMK A01 T03470151  RH  031%=      5-min Rain = 0
KBY1 122011Z 10001KT 35/15 A2995 RMK A01 T03500154  RH  031%=      5-min Rain = 0
KBY1 122012Z 06003KT 36/16 A2995 RMK A01 T03550156  RH  031%=      5-min Rain = 0
KBY1 122013Z 08004KT 36/15 A2995 RMK A01 T03570153  RH  030%=      5-min Rain = 0
KBY1 122014Z 11004KT 36/15 A2995 RMK A01 T03590154  RH  030%=      5-min Rain = 0
KBY1 122015Z 14005KT 36/15 A2995 RMK A01 T03600152  RH  029%=      5-min Rain = 0
KBY1 122016Z 15003KT 36/15 A2995 RMK A01 T03580150  RH  029%=      5-min Rain = 0
KBY1 122017Z 13004KT 36/15 A2994 RMK A01 T03550151  RH  030%=      5-min Rain = 0
KBY1 122018Z 12003KT 35/15 A2994 RMK A01 T03540151  RH  030%=      5-min Rain = 0
KBY1 122019Z 15001KT 35/15 A2994 RMK A01 T03520149  RH  030%=      5-min Rain = 0
KBY1 122020Z 04001KT 35/15 A2994 RMK A01 T03510148  RH  030%=      5-min Rain = 0
KBY1 122021Z 09001KT 35/15 A2994 RMK A01 T03500147  RH  030%=      5-min Rain = 0
KBY1 122022Z 08001KT 35/15 A2994 RMK A01 T03490150  RH  030%=      5-min Rain = 0
KBY1 122023Z 08002KT 35/15 A2994 RMK A01 T03500152  RH  031%=      5-min Rain = 0
KBY1 122024Z 10003KT 35/15 A2994 RMK A01 T03510153  RH  031%=      5-min Rain = 0
KBY1 122025Z 08003KT 35/15 A2994 RMK A01 T03520149  RH  030%=      5-min Rain = 0
KBY1 122026Z 08002KT 35/15 A2994 RMK A01 T03520147  RH  029%=      5-min Rain = 0
KBY1 122027Z 10003KT 35/15 A2994 RMK A01 T03520151  RH  030%=      5-min Rain = 0
KBY1 122028Z 11002KT 36/15 A2994 RMK A01 T03550149  RH  029%=      5-min Rain = 0
KBY1 122029Z 13001KT 36/15 A2994 RMK A01 T03560147  RH  029%=      5-min Rain = 0
KBY1 122030Z 18002KT 36/15 A2994 RMK A01 T03560148  RH  029%=      5-min Rain = 0
KBY1 122031Z 17003KT 36/15 A2994 RMK A01 T03560152  RH  030%=      5-min Rain = 0
KBY1 122032Z 11005KT 36/15 A2994 RMK A01 T03590153  RH  029%=      5-min Rain = 0
KBY1 122033Z 11005KT 36/15 A2994 RMK A01 T03620152  RH  029%=      5-min Rain = 0
KBY1 122034Z 12004KT 36/15 A2994 RMK A01 T03640151  RH  028%=      5-min Rain = 0
KBY1 122035Z 13005KT 37/15 A2994 RMK A01 T03650152  RH  028%=      5-min Rain = 0
KBY1 122036Z 13005KT 37/15 A2994 RMK A01 T03660152  RH  028%=      5-min Rain = 0
KBY1 122037Z 11004KT 37/15 A2994 RMK A01 T03670151  RH  028%=      5-min Rain = 0
KBY1 122038Z 10005KT 37/15 A2994 RMK A01 T03660150  RH  028%=      5-min Rain = 0
KBY1 122039Z 11005KT 37/15 A2994 RMK A01 T03650150  RH  028%=      5-min Rain = 0
KBY1 122040Z 10006KT 36/15 A2994 RMK A01 T03640151  RH  028%=      5-min Rain = 0
KBY1 122041Z 09005KT 36/15 A2994 RMK A01 T03640150  RH  028%=      5-min Rain = 0
KBY1 122042Z 09005KT 37/15 A2993 RMK A01 T03660153  RH  028%=      5-min Rain = 0
KBY1 122043Z 06004KT 37/15 A2993 RMK A01 T03690152  RH  028%=      5-min Rain = 0
KBY1 122044Z 05005KT 37/15 A2993 RMK A01 T03690151  RH  028%=      5-min Rain = 0
KBY1 122045Z 05003KT 37/15 A2993 RMK A01 T03660151  RH  028%=      5-min Rain = 0
KBY1 122046Z 04003KT 37/15 A2993 RMK A01 T03660150  RH  028%=      5-min Rain = 0
KBY1 122047Z 02002KT 37/15 A2993 RMK A01 T03670152  RH  028%=      5-min Rain = 0
KBY1 122048Z 32002KT 37/15 A2993 RMK A01 T03680151  RH  028%=      5-min Rain = 0
KBY1 122049Z 34006KT 37/15 A2993 RMK A01 T03710154  RH  028%=      5-min Rain = 0
KBY1 122050Z 35005KT 37/15 A2993 RMK A01 T03740154  RH  027%=      5-min Rain = 0
KBY1 122051Z 32004KT 37/15 A2993 RMK A01 T03730152  RH  027%=      5-min Rain = 0
KBY1 122052Z 31004KT 37/15 A2993 RMK A01 T03710153  RH  027%=      5-min Rain = 0
KBY1 122053Z 29005KT 37/15 A2993 RMK A01 T03710149  RH  027%=      5-min Rain = 0
KBY1 122054Z 26002KT 37/15 A2993 RMK A01 T03680148  RH  027%=      5-min Rain = 0
KBY1 122055Z 32001KT 37/15 A2993 RMK A01 T03660149  RH  027%=      5-min Rain = 0
KBY1 122056Z 28004G9KT 37/15 A2993 RMK A01 T03660150  RH  028%=      5-min Rain = 0
KBY1 122057Z 29005KT 37/15 A2993 RMK A01 T03650150  RH  028%=      5-min Rain = 0
KBY1 122058Z 27005KT 36/15 A2993 RMK A01 T03630149  RH  028%=      5-min Rain = 0
KBY1 122059Z 25006KT 36/15 A2992 RMK A01 T03600148  RH  028%=      5-min Rain = 0
KBY1 122100Z 24006KT 36/15 A2992 RMK A01 T03570149  RH  029%=      5-min Rain = 0
KBY1 122101Z 27003KT 36/15 A2992 RMK A01 T03570151  RH  029%=      5-min Rain = 0
KBY1 122102Z 34001KT 36/15 A2992 RMK A01 T03590150  RH  029%=      5-min Rain = 0
KBY1 122103Z 01001KT 36/15 A2992 RMK A01 T03600150  RH  029%=      5-min Rain = 0
KBY1 122104Z 03005KT 36/15 A2992 RMK A01 T03620151  RH  029%=      5-min Rain = 0
KBY1 122105Z 03005KT 36/15 A2992 RMK A01 T03620150  RH  028%=      5-min Rain = 0
KBY1 122106Z 04002KT 36/15 A2992 RMK A01 T03580146  RH  028%=      5-min Rain = 0
KBY1 122107Z 32002KT 36/15 A2992 RMK A01 T03570150  RH  029%=      5-min Rain = 0
KBY1 122108Z 36001KT 36/15 A2992 RMK A01 T03590151  RH  029%=      5-min Rain = 0
KBY1 122109Z 11001KT 36/15 A2992 RMK A01 T03610150  RH  029%=      5-min Rain = 0
KBY1 122110Z 12004KT 36/15 A2992 RMK A01 T03610151  RH  029%=      5-min Rain = 0
KBY1 122111Z 13005KT 36/15 A2992 RMK A01 T03610153  RH  029%=      5-min Rain = 0
KBY1 122112Z 15004KT 36/15 A2992 RMK A01 T03600153  RH  029%=      5-min Rain = 0
KBY1 122113Z 13004KT 36/16 A2992 RMK A01 T03590155  RH  030%=      5-min Rain = 0
KBY1 122114Z 11004KT 36/15 A2992 RMK A01 T03590154  RH  030%=      5-min Rain = 0
KBY1 122115Z 09006KT 36/16 A2992 RMK A01 T03590156  RH  030%=      5-min Rain = 0
KBY1 122116Z 08007KT 36/16 A2992 RMK A01 T03610155  RH  030%=      5-min Rain = 0
KBY1 122117Z 08006KT 36/16 A2992 RMK A01 T03600158  RH  030%=      5-min Rain = 0
KBY1 122118Z 09006KT 36/16 A2992 RMK A01 T03590158  RH  030%=      5-min Rain = 0
KBY1 122119Z 09008KT 36/16 A2992 RMK A01 T03580157  RH  030%=      5-min Rain = 0
KBY1 122120Z 09009KT 36/16 A2992 RMK A01 T03570155  RH  030%=      5-min Rain = 0
KBY1 122121Z 10007KT 36/15 A2992 RMK A01 T03550154  RH  030%=      5-min Rain = 0
KBY1 122122Z 11008KT 36/15 A2992 RMK A01 T03550154  RH  030%=      5-min Rain = 0
KBY1 122123Z 11007KT 35/15 A2992 RMK A01 T03540151  RH  030%=      5-min Rain = 0
KBY1 122124Z 10007KT 35/15 A2992 RMK A01 T03530152  RH  030%=      5-min Rain = 0
KBY1 122125Z 08010KT 35/15 A2992 RMK A01 T03530154  RH  031%=      5-min Rain = 0
KBY1 122126Z 10009KT 35/15 A2992 RMK A01 T03530152  RH  030%=      5-min Rain = 0
KBY1 122127Z 10007KT 36/15 A2992 RMK A01 T03560153  RH  030%=      5-min Rain = 0
KBY1 122128Z 10008KT 36/15 A2992 RMK A01 T03590152  RH  029%=      5-min Rain = 0
KBY1 122129Z 10007KT 36/15 A2992 RMK A01 T03600151  RH  029%=      5-min Rain = 0
KBY1 122130Z 11005KT 36/15 A2992 RMK A01 T03600151  RH  029%=      5-min Rain = 0
KBY1 122131Z 08006KT 36/15 A2992 RMK A01 T03580151  RH  029%=      5-min Rain = 0
KBY1 122132Z 09004KT 36/15 A2992 RMK A01 T03590151  RH  029%=      5-min Rain = 0
KBY1 122133Z 07006KT 36/15 A2992 RMK A01 T03610152  RH  029%=      5-min Rain = 0
KBY1 122134Z 05006KT 36/15 A2991 RMK A01 T03620151  RH  029%=      5-min Rain = 0
KBY1 122135Z 04005KT 36/15 A2991 RMK A01 T03610154  RH  029%=      5-min Rain = 0
KBY1 122136Z 05007KT 36/15 A2991 RMK A01 T03600150  RH  029%=      5-min Rain = 0
KBY1 122137Z 05004KT 36/15 A2991 RMK A01 T03570150  RH  029%=      5-min Rain = 0
KBY1 122138Z 06004KT 36/15 A2991 RMK A01 T03560148  RH  029%=      5-min Rain = 0
KBY1 122139Z 06005KT 35/15 A2991 RMK A01 T03540150  RH  030%=      5-min Rain = 0
KBY1 122140Z 05006KT 36/15 A2991 RMK A01 T03550151  RH  030%=      5-min Rain = 0
KBY1 122141Z 04007KT 35/15 A2991 RMK A01 T03540150  RH  029%=      5-min Rain = 0
KBY1 122142Z 04006KT 35/15 A2991 RMK A01 T03540148  RH  029%=      5-min Rain = 0
KBY1 122143Z 02005KT 35/15 A2991 RMK A01 T03530149  RH  029%=      5-min Rain = 0
KBY1 122144Z 03005KT 35/15 A2991 RMK A01 T03530149  RH  030%=      5-min Rain = 0
KBY1 122145Z 02005KT 35/15 A2991 RMK A01 T03530149  RH  030%=      5-min Rain = 0
KBY1 122146Z 02002KT 36/15 A2991 RMK A01 T03550149  RH  029%=      5-min Rain = 0
KBY1 122147Z 05003KT 36/15 A2991 RMK A01 T03580151  RH  029%=      5-min Rain = 0
KBY1 122148Z 07005KT 36/15 A2991 RMK A01 T03600152  RH  029%=      5-min Rain = 0
KBY1 122149Z 05006KT 36/16 A299 RMK A01 T03640155  RH  029%=      5-min Rain = 0
KBY1 122150Z 06007KT 37/16 A299 RMK A01 T03670155  RH  028%=      5-min Rain = 0
KBY1 122151Z 07005KT 37/15 A299 RMK A01 T03690152  RH  028%=      5-min Rain = 0
KBY1 122152Z 06006KT 37/15 A299 RMK A01 T03680153  RH  028%=      5-min Rain = 0
KBY1 122153Z 03007KT 37/15 A299 RMK A01 T03680151  RH  028%=      5-min Rain = 0
KBY1 122154Z 02005KT 37/15 A299 RMK A01 T03660150  RH  028%=      5-min Rain = 0
KBY1 122155Z 02006KT 37/15 A299 RMK A01 T03660151  RH  028%=      5-min Rain = 0
KBY1 122156Z 04007KT 37/15 A299 RMK A01 T03680151  RH  028%=      5-min Rain = 0
KBY1 122157Z 04007KT 37/15 A299 RMK A01 T03680151  RH  028%=      5-min Rain = 0
KBY1 122158Z 06005KT 37/15 A299 RMK A01 T03680151  RH  028%=      5-min Rain = 0
KBY1 122159Z 07003KT 37/15 A299 RMK A01 T03680149  RH  027%=      5-min Rain = 0
KBY1 122200Z 07002KT 37/15 A299 RMK A01 T03670149  RH  027%=      5-min Rain = 0
KBY1 122201Z 09003KT 37/15 A299 RMK A01 T03670150  RH  028%=      5-min Rain = 0
KBY1 122202Z 09004KT 37/15 A299 RMK A01 T03660150  RH  028%=      5-min Rain = 0
KBY1 122203Z 08004KT 36/15 A299 RMK A01 T03630151  RH  028%=      5-min Rain = 0
KBY1 122204Z 04005KT 36/15 A299 RMK A01 T03640153  RH  029%=      5-min Rain = 0
KBY1 122205Z 04006KT 37/15 A299 RMK A01 T03680150  RH  027%=      5-min Rain = 0
KBY1 122206Z 04005KT 37/15 A299 RMK A01 T03660150  RH  028%=      5-min Rain = 0
KBY1 122207Z 05006KT 37/15 A299 RMK A01 T03660149  RH  028%=      5-min Rain = 0
KBY1 122208Z 05004KT 37/15 A299 RMK A01 T03650150  RH  028%=      5-min Rain = 0
KBY1 122209Z 04003KT 37/15 A299 RMK A01 T03660148  RH  027%=      5-min Rain = 0
KBY1 122210Z 06003KT 37/15 A299 RMK A01 T03650148  RH  028%=      5-min Rain = 0
KBY1 122211Z 05006KT 37/15 A2989 RMK A01 T03650150  RH  028%=      5-min Rain = 0
KBY1 122212Z 05006KT 37/15 A2989 RMK A01 T03660150  RH  028%=      5-min Rain = 0
KBY1 122213Z 03006KT 37/15 A2989 RMK A01 T03670149  RH  027%=      5-min Rain = 0
KBY1 122214Z 03007KT 37/15 A2989 RMK A01 T03670149  RH  027%=      5-min Rain = 0
KBY1 122215Z 02005KT 37/15 A2989 RMK A01 T03660149  RH  028%=      5-min Rain = 0
KBY1 122216Z 02006KT 37/15 A2989 RMK A01 T03660149  RH  028%=      5-min Rain = 0
KBY1 122217Z 34003KT 37/15 A2989 RMK A01 T03670148  RH  027%=      5-min Rain = 0
KBY1 122218Z 01004KT 37/15 A2989 RMK A01 T03670148  RH  027%=      5-min Rain = 0
KBY1 122219Z 03002KT 37/15 A2989 RMK A01 T03670148  RH  027%=      5-min Rain = 0
KBY1 122220Z 03005KT 37/15 A2989 RMK A01 T03680149  RH  027%=      5-min Rain = 0
KBY1 122221Z 04004KT 37/15 A2989 RMK A01 T03690147  RH  027%=      5-min Rain = 0
KBY1 122222Z 03004KT 37/15 A2989 RMK A01 T03680146  RH  027%=      5-min Rain = 0
KBY1 122223Z 07004KT 37/15 A2989 RMK A01 T03670146  RH  027%=      5-min Rain = 0
KBY1 122224Z 07002KT 37/15 A2989 RMK A01 T03680146  RH  027%=      5-min Rain = 0
KBY1 122225Z 03003KT 37/15 A2989 RMK A01 T03690146  RH  027%=      5-min Rain = 0
KBY1 122226Z 00004KT 37/15 A2989 RMK A01 T03700148  RH  027%=      5-min Rain = 0
KBY1 122227Z 02003KT 37/15 A2989 RMK A01 T03710147  RH  027%=      5-min Rain = 0
KBY1 122228Z 04003KT 37/15 A299 RMK A01 T03720147  RH  026%=      5-min Rain = 0
KBY1 122229Z 05003KT 37/14 A299 RMK A01 T03710144  RH  026%=      5-min Rain = 0
KBY1 122230Z 06003KT 37/14 A2989 RMK A01 T03700144  RH  026%=      5-min Rain = 0
KBY1 122231Z 05004KT 37/15 A299 RMK A01 T03700145  RH  026%=      5-min Rain = 0
KBY1 122232Z 06003KT 37/15 A299 RMK A01 T03710146  RH  026%=      5-min Rain = 0
KBY1 122233Z 05001KT 37/15 A299 RMK A01 T03710145  RH  026%=      5-min Rain = 0
KBY1 122234Z 09002KT 37/15 A299 RMK A01 T03710146  RH  026%=      5-min Rain = 0
KBY1 122235Z 11003KT 37/15 A299 RMK A01 T03720147  RH  026%=      5-min Rain = 0
KBY1 122236Z 10003KT 37/15 A299 RMK A01 T03740150  RH  027%=      5-min Rain = 0
KBY1 122237Z 08004KT 38/15 A299 RMK A01 T03750147  RH  026%=      5-min Rain = 0
KBY1 122238Z 07004KT 38/15 A299 RMK A01 T03750147  RH  026%=      5-min Rain = 0
KBY1 122239Z 04004KT 37/15 A299 RMK A01 T03740147  RH  026%=      5-min Rain = 0
KBY1 122240Z 01004KT 37/15 A299 RMK A01 T03740145  RH  026%=      5-min Rain = 0
KBY1 122241Z 30004KT 37/15 A299 RMK A01 T03730147  RH  026%=      5-min Rain = 0
KBY1 122242Z 30004KT 37/15 A299 RMK A01 T03740145  RH  026%=      5-min Rain = 0
KBY1 122243Z 32004KT 37/15 A299 RMK A01 T03740145  RH  026%=      5-min Rain = 0
KBY1 122244Z 01002KT 37/15 A299 RMK A01 T03730146  RH  026%=      5-min Rain = 0
KBY1 122245Z 05000KT 37/15 A299 RMK A01 T03730145  RH  026%=      5-min Rain = 0
KBY1 122246Z 26002KT 37/14 A299 RMK A01 T03720143  RH  026%=      5-min Rain = 0
KBY1 122247Z 24004KT 37/13 A299 RMK A01 T03740130  RH  023%=      5-min Rain = 0
KBY1 122248Z 19004KT 38/13 A299 RMK A01 T03770131  RH  023%=      5-min Rain = 0
KBY1 122249Z 08002KT 38/14 A299 RMK A01 T03790140  RH  024%=      5-min Rain = 0
KBY1 122250Z 09006KT 38/14 A299 RMK A01 T03800135  RH  023%=      5-min Rain = 0
KBY1 122251Z 10005KT 38/14 A299 RMK A01 T03780135  RH  024%=      5-min Rain = 0
KBY1 122252Z 10008KT 38/14 A2991 RMK A01 T03770141  RH  025%=      5-min Rain = 0
KBY1 122253Z 10012KT 37/16 A2991 RMK A01 T03700158  RH  028%=      5-min Rain = 0
KBY1 122254Z 10016KT 36/16 A2991 RMK A01 T03600158  RH  030%=      5-min Rain = 0
KBY1 122255Z 10015KT 35/16 A2991 RMK A01 T03540159  RH  031%=      5-min Rain = 0
KBY1 122256Z 11015KT 35/16 A2991 RMK A01 T03520161  RH  032%=      5-min Rain = 0
KBY1 122257Z 10013KT 35/16 A2991 RMK A01 T03490161  RH  033%=      5-min Rain = 0
KBY1 122258Z 12014KT 35/16 A2991 RMK A01 T03470162  RH  033%=      5-min Rain = 0
KBY1 122259Z 11013KT 35/16 A2991 RMK A01 T03490163  RH  033%=      5-min Rain = 0
KBY1 122300Z 10012KT 35/16 A2991 RMK A01 T03510164  RH  033%=      5-min Rain = 0
KBY1 122301Z 10011KT 36/17 A2991 RMK A01 T03550168  RH  033%=      5-min Rain = 0
KBY1 122302Z 10011KT 36/17 A2991 RMK A01 T03580168  RH  033%=      5-min Rain = 0
KBY1 122303Z 08013KT 36/17 A2991 RMK A01 T03600169  RH  032%=      5-min Rain = 0
KBY1 122304Z 09015KT 36/17 A2991 RMK A01 T03590167  RH  032%=      5-min Rain = 0
KBY1 122305Z 10014KT 36/17 A2991 RMK A01 T03550167  RH  033%=      5-min Rain = 0
KBY1 122306Z 10013KT 35/17 A2991 RMK A01 T03540168  RH  033%=      5-min Rain = 0
KBY1 122307Z 09011KT 36/17 A2991 RMK A01 T03550169  RH  033%=      5-min Rain = 0
KBY1 122308Z 10010KT 36/17 A2991 RMK A01 T03550170  RH  033%=      5-min Rain = 0
KBY1 122309Z 11012G17KT 36/17 A2991 RMK A01 T03550171  RH  034%=      5-min Rain = 0
KBY1 122310Z 12011G16KT 35/17 A2991 RMK A01 T03530168  RH  033%=      5-min Rain = 0
KBY1 122311Z 12011G17KT 35/17 A2991 RMK A01 T03520169  RH  034%=      5-min Rain = 0
KBY1 122312Z 11013KT 35/17 A2991 RMK A01 T03490166  RH  034%=      5-min Rain = 0
KBY1 122313Z 11013KT 35/17 A2991 RMK A01 T03460165  RH  034%=      5-min Rain = 0
KBY1 122314Z 11012KT 34/16 A2991 RMK A01 T03440164  RH  034%=      5-min Rain = 0
KBY1 122315Z 10015KT 34/16 A2991 RMK A01 T03420164  RH  034%=      5-min Rain = 0
KBY1 122316Z 10014KT 34/16 A2991 RMK A01 T03410163  RH  035%=      5-min Rain = 0
KBY1 122317Z 10012KT 34/16 A2991 RMK A01 T03390164  RH  035%=      5-min Rain = 0
KBY1 122318Z 10012KT 34/16 A2991 RMK A01 T03380164  RH  035%=      5-min Rain = 0
KBY1 122319Z 10012KT 34/16 A2991 RMK A01 T03370163  RH  035%=      5-min Rain = 0
KBY1 122320Z 09010KT 34/16 A2991 RMK A01 T03360163  RH  036%=      5-min Rain = 0
KBY1 122321Z 10009KT 34/16 A2991 RMK A01 T03360164  RH  036%=      5-min Rain = 0
KBY1 122322Z 10011KT 34/16 A2991 RMK A01 T03350164  RH  036%=      5-min Rain = 0
KBY1 122323Z 09010KT 34/17 A2991 RMK A01 T03350165  RH  036%=      5-min Rain = 0
KBY1 122324Z 09012KT 33/16 A2991 RMK A01 T03340163  RH  036%=      5-min Rain = 0
KBY1 122325Z 09011KT 33/16 A2991 RMK A01 T03340164  RH  036%=      5-min Rain = 0
KBY1 122326Z 09010KT 33/16 A2991 RMK A01 T03330164  RH  036%=      5-min Rain = 0
KBY1 122327Z 08009KT 33/17 A2991 RMK A01 T03330165  RH  037%=      5-min Rain = 0
KBY1 122328Z 08011KT 33/17 A299 RMK A01 T03330165  RH  037%=      5-min Rain = 0
KBY1 122329Z 08013KT 33/17 A299 RMK A01 T03330165  RH  037%=      5-min Rain = 0
KBY1 122330Z 08012KT 33/16 A299 RMK A01 T03330164  RH  037%=      5-min Rain = 0
KBY1 122331Z 07011KT 33/16 A299 RMK A01 T03320164  RH  037%=      5-min Rain = 0
KBY1 122332Z 07013KT 33/16 A299 RMK A01 T03320164  RH  037%=      5-min Rain = 0
KBY1 122333Z 07011KT 33/16 A299 RMK A01 T03320164  RH  036%=      5-min Rain = 0
KBY1 122334Z 06011KT 33/16 A299 RMK A01 T03320164  RH  037%=      5-min Rain = 0
KBY1 122335Z 06011KT 33/17 A299 RMK A01 T03320165  RH  037%=      5-min Rain = 0
KBY1 122336Z 07011KT 33/17 A299 RMK A01 T03320165  RH  037%=      5-min Rain = 0
KBY1 122337Z 07010KT 33/17 A299 RMK A01 T03310165  RH  037%=      5-min Rain = 0
KBY1 122338Z 07009KT 33/17 A299 RMK A01 T03310166  RH  037%=      5-min Rain = 0
KBY1 122339Z 06012G17KT 33/17 A299 RMK A01 T03310166  RH  037%=      5-min Rain = 0
KBY1 122340Z 07011KT 33/17 A299 RMK A01 T03300166  RH  037%=      5-min Rain = 0
KBY1 122341Z 07011KT 33/17 A299 RMK A01 T03300166  RH  037%=      5-min Rain = 0
KBY1 122342Z 08007KT 33/17 A299 RMK A01 T03290166  RH  038%=      5-min Rain = 0
KBY1 122343Z 07009KT 33/17 A299 RMK A01 T03290167  RH  038%=      5-min Rain = 0
KBY1 122344Z 08011KT 33/17 A299 RMK A01 T03280165  RH  038%=      5-min Rain = 0
KBY1 122345Z 08010KT 33/16 A299 RMK A01 T03280164  RH  037%=      5-min Rain = 0
KBY1 122346Z 08011KT 33/16 A299 RMK A01 T03270163  RH  037%=      5-min Rain = 0
KBY1 122347Z 08010KT 33/16 A299 RMK A01 T03270162  RH  037%=      5-min Rain = 0
KBY1 122348Z 08010KT 33/16 A299 RMK A01 T03260162  RH  037%=      5-min Rain = 0
KBY1 122349Z 07009KT 33/16 A299 RMK A01 T03260162  RH  038%=      5-min Rain = 0
KBY1 122350Z 08009KT 33/16 A299 RMK A01 T03260162  RH  038%=      5-min Rain = 0
KBY1 122351Z 09008KT 33/16 A299 RMK A01 T03250162  RH  038%=      5-min Rain = 0
KBY1 122352Z 09007KT 33/16 A299 RMK A01 T03250163  RH  038%=      5-min Rain = 0
KBY1 122353Z 09006KT 33/16 A299 RMK A01 T03250163  RH  038%=      5-min Rain = 0
KBY1 122354Z 10007KT 32/16 A299 RMK A01 T03240162  RH  038%=      5-min Rain = 0
KBY1 122355Z 09008KT 32/16 A299 RMK A01 T03240162  RH  038%=      5-min Rain = 0
KBY1 122356Z 09007KT 32/16 A299 RMK A01 T03240161  RH  038%=      5-min Rain = 0
KBY1 122357Z 09006KT 32/16 A299 RMK A01 T03240163  RH  038%=      5-min Rain = 0
KBY1 122358Z 10005KT 32/16 A299 RMK A01 T03230163  RH  038%=      5-min Rain = 0
KBY1 122359Z 09006KT 32/16 A299 RMK A01 T03230163  RH  038%=      5-min Rain = 0
KBY1 130000Z 08007KT 32/16 A2991 RMK A01 T03230164  RH  039%=      5-min Rain = 0
KBY1 130001Z 08006KT 32/17 A2991 RMK A01 T03220165  RH  039%=      5-min Rain = 0
KBY1 130002Z 08007KT 32/17 A2991 RMK A01 T03220165  RH  039%=      5-min Rain = 0
KBY1 130003Z 08006KT 32/17 A2991 RMK A01 T03220166  RH  039%=      5-min Rain = 0
KBY1 130004Z 08006KT 32/17 A2991 RMK A01 T03220165  RH  039%=      5-min Rain = 0
KBY1 130005Z 07005KT 32/17 A2991 RMK A01 T03220166  RH  039%=      5-min Rain = 0
KBY1 130006Z 07005KT 32/17 A2991 RMK A01 T03220166  RH  039%=      5-min Rain = 0
KBY1 130007Z 07007KT 32/17 A2991 RMK A01 T03220165  RH  039%=      5-min Rain = 0
KBY1 130008Z 07006KT 32/16 A2991 RMK A01 T03220164  RH  039%=      5-min Rain = 0
KBY1 130009Z 07004KT 32/17 A2991 RMK A01 T03220165  RH  039%=      5-min Rain = 0
KBY1 130010Z 07008KT 32/17 A2991 RMK A01 T03220166  RH  039%=      5-min Rain = 0
KBY1 130011Z 07007KT 32/16 A2991 RMK A01 T03220164  RH  039%=      5-min Rain = 0
KBY1 130012Z 07006KT 32/17 A2991 RMK A01 T03220165  RH  039%=      5-min Rain = 0
KBY1 130013Z 08006KT 32/17 A2991 RMK A01 T03220165  RH  039%=      5-min Rain = 0
KBY1 130014Z 08007KT 32/16 A2991 RMK A01 T03220164  RH  039%=      5-min Rain = 0
KBY1 130015Z 07007KT 32/17 A2991 RMK A01 T03220165  RH  039%=      5-min Rain = 0
KBY1 130016Z 07007KT 32/16 A2991 RMK A01 T03220164  RH  039%=      5-min Rain = 0
KBY1 130017Z 07007KT 32/16 A2991 RMK A01 T03220164  RH  039%=      5-min Rain = 0
KBY1 130018Z 07006KT 32/16 A2991 RMK A01 T03230164  RH  039%=      5-min Rain = 0
KBY1 130019Z 06005KT 32/16 A2991 RMK A01 T03220164  RH  039%=      5-min Rain = 0
KBY1 130020Z 06007KT 32/17 A2991 RMK A01 T03220166  RH  039%=      5-min Rain = 0
KBY1 130021Z 06007KT 32/17 A2991 RMK A01 T03220166  RH  039%=      5-min Rain = 0
KBY1 130022Z 05007KT 32/17 A2991 RMK A01 T03220166  RH  039%=      5-min Rain = 0
KBY1 130023Z 04007KT 32/17 A2991 RMK A01 T03220167  RH  040%=      5-min Rain = 0
KBY1 130024Z 04007KT 32/17 A2991 RMK A01 T03220168  RH  040%=      5-min Rain = 0
KBY1 130025Z 05008KT 32/17 A2991 RMK A01 T03220168  RH  040%=      5-min Rain = 0
KBY1 130026Z 06008KT 32/17 A2991 RMK A01 T03210167  RH  040%=      5-min Rain = 0
KBY1 130027Z 08008KT 32/17 A2991 RMK A01 T03190167  RH  040%=      5-min Rain = 0
KBY1 130028Z 08008KT 32/16 A2991 RMK A01 T03190163  RH  039%=      5-min Rain = 0
KBY1 130029Z 08007KT 32/16 A2991 RMK A01 T03180164  RH  040%=      5-min Rain = 0
KBY1 130030Z 07007KT 32/16 A2991 RMK A01 T03170164  RH  040%=      5-min Rain = 0
KBY1 130031Z 06007KT 32/16 A2991 RMK A01 T03170163  RH  040%=      5-min Rain = 0
KBY1 130032Z 09006KT 32/16 A2991 RMK A01 T03170161  RH  039%=      5-min Rain = 0
KBY1 130033Z 08008KT 32/16 A2991 RMK A01 T03170161  RH  039%=      5-min Rain = 0
KBY1 130034Z 08009KT 32/16 A2991 RMK A01 T03170160  RH  039%=      5-min Rain = 0
KBY1 130035Z 08008KT 32/16 A2991 RMK A01 T03160159  RH  039%=      5-min Rain = 0
KBY1 130036Z 08009KT 32/16 A2991 RMK A01 T03160160  RH  039%=      5-min Rain = 0
KBY1 130037Z 07007KT 32/16 A2991 RMK A01 T03150159  RH  039%=      5-min Rain = 0
KBY1 130038Z 08007KT 32/16 A2991 RMK A01 T03150160  RH  039%=      5-min Rain = 0
KBY1 130039Z 07006KT 32/16 A2991 RMK A01 T03150159  RH  039%=      5-min Rain = 0
KBY1 130040Z 06007KT 32/16 A2991 RMK A01 T03150159  RH  039%=      5-min Rain = 0
KBY1 130041Z 07007KT 32/16 A2991 RMK A01 T03150158  RH  039%=      5-min Rain = 0
KBY1 130042Z 07005KT 32/16 A2991 RMK A01 T03150158  RH  039%=      5-min Rain = 0
KBY1 130043Z 07007KT 31/16 A2991 RMK A01 T03140158  RH  039%=      5-min Rain = 0
KBY1 130044Z 05006KT 31/16 A2992 RMK A01 T03140158  RH  039%=      5-min Rain = 0
KBY1 130045Z 06009KT 31/16 A2992 RMK A01 T03140158  RH  039%=      5-min Rain = 0
KBY1 130046Z 05008KT 31/16 A2992 RMK A01 T03140158  RH  039%=      5-min Rain = 0
KBY1 130047Z 06008KT 31/16 A2992 RMK A01 T03140158  RH  039%=      5-min Rain = 0
KBY1 130048Z 06009KT 31/16 A2992 RMK A01 T03140158  RH  039%=      5-min Rain = 0
KBY1 130049Z 05007KT 31/16 A2992 RMK A01 T03130159  RH  039%=      5-min Rain = 0
KBY1 130050Z 05008KT 31/16 A2992 RMK A01 T03130159  RH  040%=      5-min Rain = 0
KBY1 130051Z 06008KT 31/16 A2993 RMK A01 T03130160  RH  040%=      5-min Rain = 0
KBY1 130052Z 07007KT 31/16 A2993 RMK A01 T03130160  RH  040%=      5-min Rain = 0
KBY1 130053Z 07008KT 31/16 A2993 RMK A01 T03120161  RH  040%=      5-min Rain = 0
KBY1 130054Z 08008KT 31/16 A2993 RMK A01 T03120160  RH  040%=      5-min Rain = 0
KBY1 130055Z 07006G11KT 31/16 A2993 RMK A01 T03110159  RH  040%=      5-min Rain = 0
KBY1 130056Z 05006KT 31/16 A2994 RMK A01 T03100159  RH  040%=      5-min Rain = 0
KBY1 130057Z 36005KT 31/16 A2994 RMK A01 T03100159  RH  040%=      5-min Rain = 0
KBY1 130058Z 32010KT 31/16 A2995 RMK A01 T03100160  RH  040%=      5-min Rain = 0
KBY1 130059Z 31014G19KT 31/17 A2996 RMK A01 T03100166  RH  042%=      5-min Rain = 0
KBY1 130100Z 31012G17KT 30/18 A2996 RMK A01 T03020179  RH  048%=      5-min Rain = 0
KBY1 130101Z 32012KT 29/18 A2996 RMK A01 T02900181  RH  052%=      5-min Rain = 0
KBY1 130102Z 33009G15KT 28/18 A2996 RMK A01 T02800183  RH  056%=      5-min Rain = 0
KBY1 130103Z 33016KT 28/18 A2996 RMK A01 T02750182  RH  057%=      5-min Rain = 0
KBY1 130104Z 34017KT 28/18 A2996 RMK A01 T02750180  RH  056%=      5-min Rain = 0
KBY1 130105Z 35017G26KT 28/18 A2997 RMK A01 T02780179  RH  055%=      5-min Rain = 0
KBY1 130106Z 34010G17KT 28/18 A2997 RMK A01 T02810177  RH  053%=      5-min Rain = 0
KBY1 130107Z 34011KT 28/18 A2997 RMK A01 T02830176  RH  052%=      5-min Rain = 0
KBY1 130108Z 34012G17KT 28/18 A2997 RMK A01 T02840175  RH  052%=      5-min Rain = 0
KBY1 130109Z 00013KT 29/18 A2997 RMK A01 T02850175  RH  051%=      5-min Rain = 0
KBY1 130110Z 01013KT 29/17 A2997 RMK A01 T02860174  RH  051%=      5-min Rain = 0
KBY1 130111Z 00011KT 29/17 A2997 RMK A01 T02870172  RH  050%=      5-min Rain = 0
KBY1 130112Z 36018G24KT 29/17 A2997 RMK A01 T02880172  RH  049%=      5-min Rain = 0
KBY1 130113Z 00020KT 29/17 A2997 RMK A01 T02890172  RH  049%=      5-min Rain = 0
KBY1 130114Z 01017KT 29/17 A2996 RMK A01 T02900172  RH  049%=      5-min Rain = 0
KBY1 130115Z 00018KT 29/17 A2997 RMK A01 T02900173  RH  049%=      5-min Rain = 0
KBY1 130116Z 02016G21KT 29/17 A2997 RMK A01 T02900174  RH  050%=      5-min Rain = 0
KBY1 130117Z 01015G20KT 29/17 A2997 RMK A01 T02900173  RH  049%=      5-min Rain = 0
KBY1 130118Z 02015G21KT 29/17 A2997 RMK A01 T02900172  RH  049%=      5-min Rain = 0
KBY1 130119Z 01012KT 29/18 A2997 RMK A01 T02910175  RH  050%=      5-min Rain = 0
KBY1 130120Z 00015KT 29/18 A2997 RMK A01 T02900177  RH  051%=      5-min Rain = 0
KBY1 130121Z 36015G22KT 29/18 A2997 RMK A01 T02870180  RH  052%=      5-min Rain = 0
KBY1 130122Z 35018G24KT 28/18 A2997 RMK A01 T02830183  RH  055%=      5-min Rain = 0
KBY1 130123Z 36015G20KT 27/19 A2998 RMK A01 T02740186  RH  059%=      5-min Rain = 0
KBY1 130124Z 00018KT 27/19 A2998 RMK A01 T02650187  RH  062%=      5-min Rain = 0
KBY1 130125Z 00016KT 26/19 A2997 RMK A01 T02590188  RH  065%=      5-min Rain = 0
KBY1 130126Z 00008KT 26/19 A2997 RMK A01 T02560190  RH  067%=      5-min Rain = 0
KBY1 130127Z 00009G14KT 25/19 A2998 RMK A01 T02540192  RH  069%=      5-min Rain = 0
KBY1 130128Z 36010G17KT 25/19 A2997 RMK A01 T02530191  RH  069%=      5-min Rain = 0
KBY1 130129Z 00015G21KT 25/19 A2998 RMK A01 T02530185  RH  066%=      5-min Rain = 0
KBY1 130130Z 00015KT 25/18 A2998 RMK A01 T02520183  RH  066%=      5-min Rain = 0
KBY1 130131Z 36013KT 25/19 A2998 RMK A01 T02480185  RH  068%=      5-min Rain = 0
KBY1 130132Z 00017KT 25/19 A2998 RMK A01 T02460185  RH  069%=      5-min Rain = 0
KBY1 130133Z 00016KT 24/18 A2998 RMK A01 T02430184  RH  070%=      5-min Rain = 0
KBY1 130134Z 00019KT 24/18 A2998 RMK A01 T02410178  RH  068%=      5-min Rain = 0
KBY1 130135Z 00015KT 24/18 A2998 RMK A01 T02410177  RH  068%=      5-min Rain = 0
KBY1 130136Z 36013KT 24/18 A2998 RMK A01 T02400178  RH  068%=      5-min Rain = 0
KBY1 130137Z 00013KT 24/18 A2999 RMK A01 T02390180  RH  070%=      5-min Rain = 0
KBY1 130138Z 35012KT 24/18 A2999 RMK A01 T02380182  RH  071%=      5-min Rain = 0
KBY1 130139Z 34013KT 24/18 A2999 RMK A01 T02380182  RH  071%=      5-min Rain = 0
KBY1 130140Z 33012KT 24/18 A2999 RMK A01 T02390184  RH  071%=      5-min Rain = 0
KBY1 130141Z 31010KT 24/19 A2999 RMK A01 T02390186  RH  072%=      5-min Rain = 0
KBY1 130142Z 30012KT 24/19 A2999 RMK A01 T02370186  RH  073%=      5-min Rain = 0
KBY1 130143Z 31014KT 23/19 A30 RMK A01 T02340187  RH  075%=      5-min Rain = 0
KBY1 130144Z 31012KT 23/19 A30 RMK A01 T02320187  RH  076%=      5-min Rain = 0
KBY1 130145Z 30015KT 23/19 A30 RMK A01 T02310188  RH  077%=      5-min Rain = 0
KBY1 130146Z 31012G17KT 23/19 A3001 RMK A01 T02290189  RH  078%=      5-min Rain = 0
KBY1 130147Z 30015G20KT 23/19 A3001 RMK A01 T02270188  RH  078%=      5-min Rain = 0
KBY1 130148Z 30017KT 23/19 A3001 RMK A01 T02280185  RH  077%=      5-min Rain = 0
KBY1 130149Z 31019KT 23/18 A3001 RMK A01 T02300182  RH  074%=      5-min Rain = 0
KBY1 130150Z 32015KT 23/18 A3001 RMK A01 T02330179  RH  071%=      5-min Rain = 0
KBY1 130151Z 31014KT 24/18 A3002 RMK A01 T02360180  RH  071%=      5-min Rain = 0
KBY1 130152Z 29013KT 24/18 A3002 RMK A01 T02360180  RH  071%=      5-min Rain = 0.01
KBY1 130153Z 29011KT 23/18 A3003 RMK A01 T02320180  RH  073%=      5-min Rain = 0.01
KBY1 130154Z 29012KT 23/18 A3003 RMK A01 T02260180  RH  075%=      5-min Rain = 0.02
KBY1 130155Z 28012KT 22/18 A3004 RMK A01 T02200182  RH  079%=      5-min Rain = 0.03
KBY1 130156Z 27010G16KT 22/18 A3004 RMK A01 T02150179  RH  080%=      5-min Rain = 0.02
KBY1 130157Z 31005KT 22/17 A3005 RMK A01 T02150173  RH  077%=      5-min Rain = 0.08
KBY1 130158Z 07003G9KT 22/16 A3005 RMK A01 T02180161  RH  070%=      5-min Rain = 0.06
KBY1 130159Z 35006KT 22/16 A3005 RMK A01 T02240164  RH  069%=      5-min Rain = 0.02
KBY1 130200Z 35008KT 22/18 A3005 RMK A01 T02210178  RH  077%=      5-min Rain = 0.03
KBY1 130201Z 35005KT 21/18 A3005 RMK A01 T02140176  RH  079%=      5-min Rain = 0.02
KBY1 130202Z 29003KT 21/18 A3004 RMK A01 T02120176  RH  080%=      5-min Rain = 0
KBY1 130203Z 17001KT 21/17 A3003 RMK A01 T02110174  RH  080%=      5-min Rain = 0.01
KBY1 130204Z 29002KT 21/17 A3002 RMK A01 T02100171  RH  078%=      5-min Rain = 0
KBY1 130205Z 29001KT 21/18 A3002 RMK A01 T02100176  RH  081%=      5-min Rain = 0
KBY1 130206Z 36002KT 21/17 A3002 RMK A01 T02100174  RH  080%=      5-min Rain = 0
KBY1 130207Z 01002KT 21/17 A3001 RMK A01 T02090171  RH  079%=      5-min Rain = 0.01
KBY1 130208Z 02006KT 21/17 A3001 RMK A01 T02100169  RH  077%=      5-min Rain = 0
KBY1 130209Z 03010KT 21/17 A30 RMK A01 T02100170  RH  078%=      5-min Rain = 0
KBY1 130210Z 05010KT 21/18 A2999 RMK A01 T02080175  RH  081%=      5-min Rain = 0
KBY1 130211Z 06012KT 21/18 A2999 RMK A01 T02050178  RH  085%=      5-min Rain = 0.01
KBY1 130212Z 06016KT 20/18 A2999 RMK A01 T02040182  RH  087%=      5-min Rain = 0.01
KBY1 130213Z 05016KT 21/18 A2999 RMK A01 T02060183  RH  087%=      5-min Rain = 0
KBY1 130214Z 05016KT 21/19 A2998 RMK A01 T02090185  RH  086%=      5-min Rain = 0.01
KBY1 130215Z 05015KT 21/19 A2998 RMK A01 T02110187  RH  086%=      5-min Rain = 0.01
KBY1 130216Z 05014KT 21/19 A2998 RMK A01 T02130188  RH  086%=      5-min Rain = 0
KBY1 130217Z 06012KT 22/19 A2998 RMK A01 T02150190  RH  086%=      5-min Rain = 0
KBY1 130218Z 05010KT 22/19 A2998 RMK A01 T02160192  RH  086%=      5-min Rain = 0
KBY1 130219Z 06010KT 22/19 A2998 RMK A01 T02160193  RH  087%=      5-min Rain = 0
KBY1 130220Z 06014KT 22/19 A2998 RMK A01 T02180193  RH  085%=      5-min Rain = 0
KBY1 130221Z 05014KT 22/19 A2998 RMK A01 T02230193  RH  083%=      5-min Rain = 0
KBY1 130222Z 06014G19KT 23/19 A2998 RMK A01 T02260193  RH  082%=      5-min Rain = 0
KBY1 130223Z 07014KT 23/19 A2998 RMK A01 T02270194  RH  082%=      5-min Rain = 0
KBY1 130224Z 07014KT 23/20 A2998 RMK A01 T02270197  RH  083%=      5-min Rain = 0
KBY1 130225Z 07012KT 23/20 A2997 RMK A01 T02250197  RH  084%=      5-min Rain = 0
KBY1 130226Z 06012KT 23/20 A2997 RMK A01 T02250197  RH  084%=      5-min Rain = 0.01
KBY1 130227Z 06014KT 23/20 A2997 RMK A01 T02250196  RH  084%=      5-min Rain = 0
KBY1 130228Z 06014KT 23/19 A2997 RMK A01 T02270194  RH  082%=      5-min Rain = 0
KBY1 130229Z 07011KT 23/19 A2997 RMK A01 T02290194  RH  081%=      5-min Rain = 0
KBY1 130230Z 06011G19KT 23/19 A2997 RMK A01 T02300194  RH  080%=      5-min Rain = 0
KBY1 130231Z 06019KT 23/19 A2998 RMK A01 T02320191  RH  078%=      5-min Rain = 0
KBY1 130232Z 07015KT 24/19 A2998 RMK A01 T02360191  RH  076%=      5-min Rain = 0
KBY1 130233Z 08012KT 24/19 A2999 RMK A01 T02380189  RH  074%=      5-min Rain = 0
KBY1 130234Z 10010KT 24/19 A2999 RMK A01 T02400189  RH  073%=      5-min Rain = 0
KBY1 130235Z 13010G15KT 24/19 A2999 RMK A01 T02390194  RH  076%=      5-min Rain = 0
KBY1 130236Z 13012KT 24/20 A30 RMK A01 T02350195  RH  078%=      5-min Rain = 0
KBY1 130237Z 13009KT 23/20 A30 RMK A01 T02320196  RH  080%=      5-min Rain = 0
KBY1 130238Z 12009KT 23/20 A30 RMK A01 T02300196  RH  081%=      5-min Rain = 0
KBY1 130239Z 11013G18KT 23/20 A30 RMK A01 T02280198  RH  083%=      5-min Rain = 0
KBY1 130240Z 10015KT 23/20 A30 RMK A01 T02280197  RH  083%=      5-min Rain = 0
KBY1 130241Z 11012KT 23/20 A30 RMK A01 T02280196  RH  082%=      5-min Rain = 0
KBY1 130242Z 11011KT 23/20 A30 RMK A01 T02280198  RH  083%=      5-min Rain = 0
KBY1 130243Z 11009KT 23/20 A30 RMK A01 T02270199  RH  084%=      5-min Rain = 0
KBY1 130244Z 11007KT 23/20 A30 RMK A01 T02260200  RH  086%=      5-min Rain = 0
KBY1 130245Z 10011KT 22/20 A30 RMK A01 T02240200  RH  086%=      5-min Rain = 0
KBY1 130246Z 09007KT 22/20 A30 RMK A01 T02230200  RH  086%=      5-min Rain = 0
KBY1 130247Z 09005KT 22/20 A30 RMK A01 T02230200  RH  087%=      5-min Rain = 0
KBY1 130248Z 10008KT 22/20 A30 RMK A01 T02230200  RH  087%=      5-min Rain = 0
KBY1 130249Z 11007KT 22/20 A30 RMK A01 T02220199  RH  087%=      5-min Rain = 0
KBY1 130250Z 10006KT 22/20 A30 RMK A01 T02220199  RH  087%=      5-min Rain = 0
KBY1 130251Z 10006KT 22/20 A30 RMK A01 T02210200  RH  087%=      5-min Rain = 0
KBY1 130252Z 11007KT 22/20 A30 RMK A01 T02200199  RH  088%=      5-min Rain = 0
KBY1 130253Z 10007KT 22/20 A30 RMK A01 T02200201  RH  089%=      5-min Rain = 0
KBY1 130254Z 10007KT 22/20 A30 RMK A01 T02190199  RH  088%=      5-min Rain = 0
KBY1 130255Z 11007KT 22/20 A30 RMK A01 T02190199  RH  089%=      5-min Rain = 0
KBY1 130256Z 10008KT 22/20 A30 RMK A01 T02190200  RH  089%=      5-min Rain = 0
KBY1 130257Z 10008KT 22/20 A30 RMK A01 T02190199  RH  088%=      5-min Rain = 0
KBY1 130258Z 11006KT 22/20 A30 RMK A01 T02190198  RH  088%=      5-min Rain = 0
KBY1 130259Z 11004KT 22/20 A30 RMK A01 T02190200  RH  089%=      5-min Rain = 0
KBY1 130300Z 11007KT 22/20 A30 RMK A01 T02190200  RH  089%=      5-min Rain = 0
KBY1 130301Z 11008KT 22/20 A30 RMK A01 T02180200  RH  089%=      5-min Rain = 0
KBY1 130302Z 10007KT 22/20 A30 RMK A01 T02180199  RH  089%=      5-min Rain = 0
KBY1 130303Z 10006KT 22/20 A30 RMK A01 T02180200  RH  089%=      5-min Rain = 0
KBY1 130304Z 10007KT 22/20 A30 RMK A01 T02180200  RH  090%=      5-min Rain = 0
KBY1 130305Z 10007KT 22/20 A30 RMK A01 T02180200  RH  090%=      5-min Rain = 0
KBY1 130306Z 09007KT 22/20 A30 RMK A01 T02170199  RH  089%=      5-min Rain = 0
KBY1 130307Z 10007KT 22/20 A30 RMK A01 T02170198  RH  089%=      5-min Rain = 0
KBY1 130308Z 09008KT 22/20 A30 RMK A01 T02170198  RH  089%=      5-min Rain = 0
KBY1 130309Z 10007KT 22/20 A30 RMK A01 T02180198  RH  088%=      5-min Rain = 0
KBY1 130310Z 10008KT 22/20 A30 RMK A01 T02180199  RH  088%=      5-min Rain = 0
KBY1 130311Z 10008KT 22/20 A30 RMK A01 T02180198  RH  088%=      5-min Rain = 0
KBY1 130312Z 10006KT 22/20 A30 RMK A01 T02180196  RH  087%=      5-min Rain = 0
KBY1 130313Z 09006KT 22/20 A30 RMK A01 T02190196  RH  087%=      5-min Rain = 0
KBY1 130314Z 08004KT 22/20 A30 RMK A01 T02190197  RH  087%=      5-min Rain = 0
KBY1 130315Z 07004KT 22/20 A30 RMK A01 T02190196  RH  087%=      5-min Rain = 0
KBY1 130316Z 04004KT 22/20 A30 RMK A01 T02190198  RH  088%=      5-min Rain = 0
KBY1 130317Z 04006KT 22/20 A30 RMK A01 T02190197  RH  087%=      5-min Rain = 0
KBY1 130318Z 05006KT 22/20 A30 RMK A01 T02200196  RH  087%=      5-min Rain = 0
KBY1 130319Z 05006KT 22/20 A30 RMK A01 T02210196  RH  086%=      5-min Rain = 0
KBY1 130320Z 05006KT 22/20 A30 RMK A01 T02220196  RH  085%=      5-min Rain = 0
KBY1 130321Z 04006KT 22/20 A30 RMK A01 T02230197  RH  085%=      5-min Rain = 0
KBY1 130322Z 05006KT 22/20 A30 RMK A01 T02230196  RH  085%=      5-min Rain = 0
KBY1 130323Z 05005KT 22/20 A30 RMK A01 T02230196  RH  084%=      5-min Rain = 0
KBY1 130324Z 07005KT 22/20 A30 RMK A01 T02240196  RH  084%=      5-min Rain = 0
KBY1 130325Z 08005KT 22/20 A30 RMK A01 T02240196  RH  084%=      5-min Rain = 0
KBY1 130326Z 09005KT 22/20 A30 RMK A01 T02240195  RH  084%=      5-min Rain = 0
KBY1 130327Z 10005KT 22/20 A30 RMK A01 T02240197  RH  085%=      5-min Rain = 0
KBY1 130328Z 12004KT 22/20 A30 RMK A01 T02240197  RH  085%=      5-min Rain = 0
KBY1 130329Z 13003KT 22/20 A30 RMK A01 T02230198  RH  086%=      5-min Rain = 0
KBY1 130330Z 12002KT 22/20 A30 RMK A01 T02220199  RH  087%=      5-min Rain = 0
KBY1 130331Z 09002KT 22/20 A30 RMK A01 T02220198  RH  087%=      5-min Rain = 0
KBY1 130332Z 05002KT 22/20 A3001 RMK A01 T02210197  RH  086%=      5-min Rain = 0
KBY1 130333Z 02002KT 22/20 A3001 RMK A01 T02210198  RH  087%=      5-min Rain = 0
KBY1 130334Z 02002KT 22/20 A3001 RMK A01 T02210198  RH  087%=      5-min Rain = 0
KBY1 130335Z 03002KT 22/20 A3001 RMK A01 T02210199  RH  087%=      5-min Rain = 0
KBY1 130336Z 04002KT 22/20 A3001 RMK A01 T02210199  RH  087%=      5-min Rain = 0
KBY1 130337Z 05002KT 22/20 A3001 RMK A01 T02210196  RH  086%=      5-min Rain = 0
KBY1 130338Z 05002KT 22/20 A3001 RMK A01 T02220198  RH  086%=      5-min Rain = 0
KBY1 130339Z 05003KT 22/20 A3001 RMK A01 T02220198  RH  086%=      5-min Rain = 0
KBY1 130340Z 06003KT 22/20 A3001 RMK A01 T02230199  RH  087%=      5-min Rain = 0
KBY1 130341Z 06003KT 22/20 A30 RMK A01 T02230198  RH  086%=      5-min Rain = 0
KBY1 130342Z 06003KT 22/20 A30 RMK A01 T02230200  RH  087%=      5-min Rain = 0
KBY1 130343Z 05004KT 22/20 A30 RMK A01 T02230200  RH  087%=      5-min Rain = 0
KBY1 130344Z 05004KT 22/20 A30 RMK A01 T02230200  RH  087%=      5-min Rain = 0
KBY1 130345Z 05002KT 22/20 A30 RMK A01 T02230201  RH  087%=      5-min Rain = 0
KBY1 130346Z 05003KT 22/20 A3001 RMK A01 T02240203  RH  088%=      5-min Rain = 0
KBY1 130347Z 05003KT 22/20 A3001 RMK A01 T02240201  RH  087%=      5-min Rain = 0
KBY1 130348Z 06003KT 22/20 A3001 RMK A01 T02240202  RH  087%=      5-min Rain = 0
KBY1 130349Z 08003KT 22/20 A3001 RMK A01 T02240203  RH  088%=      5-min Rain = 0
KBY1 130350Z 08003KT 22/20 A3001 RMK A01 T02240203  RH  088%=      5-min Rain = 0
KBY1 130351Z 08003KT 22/20 A3001 RMK A01 T02240203  RH  088%=      5-min Rain = 0
KBY1 130352Z 09003KT 22/20 A3001 RMK A01 T02230203  RH  089%=      5-min Rain = 0
KBY1 130353Z 10003KT 22/21 A3001 RMK A01 T02220205  RH  090%=      5-min Rain = 0
KBY1 130354Z 11003KT 22/21 A3001 RMK A01 T02220205  RH  090%=      5-min Rain = 0
KBY1 130355Z 13003KT 22/21 A3001 RMK A01 T02220207  RH  091%=      5-min Rain = 0
KBY1 130356Z 14003KT 22/21 A3001 RMK A01 T02220207  RH  091%=      5-min Rain = 0
KBY1 130357Z 14004KT 22/21 A3001 RMK A01 T02200205  RH  091%=      5-min Rain = 0
KBY1 130358Z 14004KT 22/20 A3001 RMK A01 T02190203  RH  091%=      5-min Rain = 0
KBY1 130359Z 13004KT 22/20 A3001 RMK A01 T02180202  RH  091%=      5-min Rain = 0
KBY1 130400Z 13004KT 22/20 A3001 RMK A01 T02180201  RH  090%=      5-min Rain = 0
KBY1 130401Z 12003KT 22/20 A3001 RMK A01 T02170200  RH  090%=      5-min Rain = 0
KBY1 130402Z 12004KT 22/20 A3001 RMK A01 T02170200  RH  090%=      5-min Rain = 0
KBY1 130403Z 13003KT 22/20 A3001 RMK A01 T02170200  RH  090%=      5-min Rain = 0
KBY1 130404Z 12003KT 22/20 A3001 RMK A01 T02170201  RH  090%=      5-min Rain = 0
KBY1 130405Z 11003KT 22/20 A3001 RMK A01 T02170199  RH  090%=      5-min Rain = 0
KBY1 130406Z 09002KT 22/20 A3001 RMK A01 T02170199  RH  089%=      5-min Rain = 0
KBY1 130407Z 06002KT 22/20 A3001 RMK A01 T02170199  RH  089%=      5-min Rain = 0
KBY1 130408Z 05003KT 22/20 A3001 RMK A01 T02170201  RH  090%=      5-min Rain = 0
KBY1 130409Z 05003KT 22/20 A3001 RMK A01 T02180201  RH  090%=      5-min Rain = 0
KBY1 130410Z 05003KT 22/20 A3001 RMK A01 T02180200  RH  090%=      5-min Rain = 0
KBY1 130411Z 05003KT 22/20 A3001 RMK A01 T02180201  RH  090%=      5-min Rain = 0
KBY1 130412Z 06003KT 22/20 A3001 RMK A01 T02190201  RH  090%=      5-min Rain = 0
KBY1 130413Z 07003KT 22/20 A3001 RMK A01 T02190198  RH  088%=      5-min Rain = 0
KBY1 130414Z 07003KT 22/20 A3001 RMK A01 T02190198  RH  088%=      5-min Rain = 0
KBY1 130415Z 08004KT 22/20 A3001 RMK A01 T02190196  RH  087%=      5-min Rain = 0
KBY1 130416Z 08002KT 22/20 A3001 RMK A01 T02200196  RH  087%=      5-min Rain = 0
KBY1 130417Z 07002KT 22/20 A3001 RMK A01 T02200197  RH  087%=      5-min Rain = 0
KBY1 130418Z 07002KT 22/20 A3001 RMK A01 T02190198  RH  087%=      5-min Rain = 0
KBY1 130419Z 06002KT 22/20 A3001 RMK A01 T02190200  RH  089%=      5-min Rain = 0
KBY1 130420Z 06003KT 22/20 A3001 RMK A01 T02200200  RH  089%=      5-min Rain = 0
KBY1 130421Z 05003KT 22/20 A3001 RMK A01 T02190202  RH  090%=      5-min Rain = 0
KBY1 130422Z 05003KT 22/20 A3001 RMK A01 T02200201  RH  089%=      5-min Rain = 0
KBY1 130423Z 06003KT 22/20 A3001 RMK A01 T02190202  RH  090%=      5-min Rain = 0
KBY1 130424Z 06003KT 22/20 A3001 RMK A01 T02200200  RH  089%=      5-min Rain = 0
KBY1 130425Z 06003KT 22/20 A3001 RMK A01 T02200200  RH  089%=      5-min Rain = 0
KBY1 130426Z 06002KT 22/20 A3001 RMK A01 T02200199  RH  088%=      5-min Rain = 0
KBY1 130427Z 06002KT 22/20 A3001 RMK A01 T02200198  RH  088%=      5-min Rain = 0
KBY1 130428Z 06002KT 22/20 A3001 RMK A01 T02200199  RH  088%=      5-min Rain = 0
KBY1 130429Z 06002KT 22/20 A3001 RMK A01 T02200198  RH  088%=      5-min Rain = 0
KBY1 130430Z 05002KT 22/20 A3001 RMK A01 T02200201  RH  089%=      5-min Rain = 0
KBY1 130431Z 04002KT 22/20 A3001 RMK A01 T02200202  RH  090%=      5-min Rain = 0
KBY1 130432Z 03002KT 22/20 A3001 RMK A01 T02200202  RH  089%=      5-min Rain = 0
KBY1 130433Z 03002KT 22/20 A3001 RMK A01 T02200201  RH  089%=      5-min Rain = 0
KBY1 130434Z 02003KT 22/20 A3001 RMK A01 T02200200  RH  088%=      5-min Rain = 0
KBY1 130435Z 01003KT 22/20 A3001 RMK A01 T02200200  RH  089%=      5-min Rain = 0
KBY1 130436Z 01003KT 22/20 A3001 RMK A01 T02200202  RH  089%=      5-min Rain = 0
KBY1 130437Z 01002KT 22/20 A3001 RMK A01 T02200202  RH  090%=      5-min Rain = 0
KBY1 130438Z 00002KT 22/20 A3001 RMK A01 T02200202  RH  090%=      5-min Rain = 0
KBY1 130439Z 36002KT 22/20 A3001 RMK A01 T02200202  RH  090%=      5-min Rain = 0
KBY1 130440Z 36002KT 22/20 A3001 RMK A01 T02200202  RH  090%=      5-min Rain = 0
KBY1 130441Z 35002KT 22/20 A3001 RMK A01 T02190201  RH  090%=      5-min Rain = 0
KBY1 130442Z 35002KT 22/20 A3001 RMK A01 T02190202  RH  090%=      5-min Rain = 0
KBY1 130443Z 35003KT 22/20 A3002 RMK A01 T02190203  RH  091%=      5-min Rain = 0
KBY1 130444Z 35003KT 22/20 A3002 RMK A01 T02190204  RH  091%=      5-min Rain = 0
KBY1 130445Z 33004KT 22/20 A3002 RMK A01 T02180204  RH  092%=      5-min Rain = 0
KBY1 130446Z 33004KT 22/21 A3002 RMK A01 T02180205  RH  092%=      5-min Rain = 0
KBY1 130447Z 33004KT 22/20 A3002 RMK A01 T02170204  RH  092%=      5-min Rain = 0
KBY1 130448Z 34003KT 22/21 A3002 RMK A01 T02170205  RH  093%=      5-min Rain = 0
KBY1 130449Z 34003KT 22/21 A3002 RMK A01 T02170206  RH  093%=      5-min Rain = 0
KBY1 130450Z 35003KT 22/21 A3002 RMK A01 T02170206  RH  093%=      5-min Rain = 0
KBY1 130451Z 35003KT 22/20 A3002 RMK A01 T02170204  RH  092%=      5-min Rain = 0
KBY1 130452Z 35003KT 22/20 A3002 RMK A01 T02170203  RH  092%=      5-min Rain = 0
KBY1 130453Z 36003KT 22/20 A3002 RMK A01 T02170202  RH  091%=      5-min Rain = 0
KBY1 130454Z 01002KT 22/20 A3002 RMK A01 T02170203  RH  092%=      5-min Rain = 0
KBY1 130455Z 01002KT 22/20 A3002 RMK A01 T02180204  RH  092%=      5-min Rain = 0
KBY1 130456Z 02001KT 22/21 A3002 RMK A01 T02180205  RH  092%=      5-min Rain = 0
KBY1 130457Z 04000KT 22/21 A3002 RMK A01 T02180205  RH  093%=      5-min Rain = 0
KBY1 130458Z 18002KT 22/21 A3002 RMK A01 T02180206  RH  093%=      5-min Rain = 0
KBY1 130459Z 18001KT 22/21 A3002 RMK A01 T02170205  RH  093%=      5-min Rain = 0

Page generated in 0.0794 seconds.